User Preferences

Timezone
Units
Lat/Lon format
Defaults

Geo and time bounds

248 - ANGELES POINT, WA   Notice:06/25/2024 Buoy cleaning,Kelp removed from buoy. Mobile View
1488 records
Date
(UTC)
Hs
(ft)
Tp
(s)
Dp
(deg)
Ta
(s)
SST
(F)
Air temp
(F)
Current sp
(kt)
Current dir
(deg)
2024-01-31 23:30 1.08 4.08 51 3.71 48.6 50.5 0.39 148.0
2024-01-31 23:00 1.12 4.00 40 3.69 48.6 50.0 0.35 227.0
2024-01-31 22:30 1.05 3.51 42 3.64 48.6 51.8 0.37 229.0
2024-01-31 22:00 1.12 4.17 41 3.72 48.6 51.1 0.93 237.0
2024-01-31 21:30 1.25 8.33 310 3.98 48.7 51.1 0.41 249.0
2024-01-31 21:00 1.28 4.17 34 3.95 48.7 50.0 0.93 262.0
2024-01-31 20:30 1.35 8.00 299 3.82 48.6 50.4 0.91 263.0
2024-01-31 20:00 1.61 8.33 294 3.77 48.6 49.6 0.56 269.0
2024-01-31 19:30 1.84 3.85 74 3.59 48.6 50.2 0.91 288.0
2024-01-31 19:00 2.07 4.55 48 3.80 48.6 49.5 0.84 292.0
2024-01-31 18:30 2.17 4.55 67 3.78 48.6 50.9 1.01 296.0
2024-01-31 18:00 2.13 4.55 90 3.95 48.6 49.8 0.70 297.0
2024-01-31 17:30 2.33 5.00 70 4.07 48.2 50.0 0.78 294.0
2024-01-31 17:00 2.43 5.13 84 4.32 48.2 50.2 0.76 310.0
2024-01-31 16:30 2.62 5.13 78 4.52 48.0 50.9 0.64 337.0
2024-01-31 16:00 3.12 5.41 80 4.80 48.2 50.7 0.56 334.0
2024-01-31 15:30 3.12 5.71 71 4.76 48.4 51.4 0.37 337.0
2024-01-31 15:00 3.44 5.71 77 5.03 48.4 54.0 0.45 27.0
2024-01-31 14:30 4.07 6.06 79 5.20 48.6 53.4 0.60 97.0
2024-01-31 14:00 3.81 6.25 76 5.12 48.6 53.1 0.64 75.0
2024-01-31 13:30 3.44 6.25 74 4.82 48.6 53.6 0.66 89.0
2024-01-31 13:00 2.89 6.25 76 4.68 48.6 52.9 0.78 95.0
2024-01-31 12:30 2.36 5.71 80 4.12 48.6 54.1 0.72 89.0
2024-01-31 12:00 2.17 5.26 75 4.07 48.6 53.6 0.64 81.0
2024-01-31 11:30 2.00 5.41 67 4.13 48.4 52.2 0.86 90.0
2024-01-31 11:00 1.67 5.00 71 3.79 48.2 52.2 0.64 96.0
2024-01-31 10:30 1.44 4.65 76 3.64 47.7 50.9 0.66 95.0
2024-01-31 10:00 1.51 3.57 48 3.41 46.8 49.5 0.80 95.0
2024-01-31 09:30 1.84 3.64 50 3.34 46.9 49.5 0.52 89.0
2024-01-31 09:00 1.71 3.70 48 3.16 48.2 51.3 0.35 75.0
2024-01-31 08:30 1.77 3.70 62 3.10 47.8 51.8 0.25 32.0
2024-01-31 08:00 1.51 3.57 62 3.15 47.3 48.7 0.23 23.0
2024-01-31 07:30 1.44 3.92 67 3.09 47.3 48.0 0.25 271.0
2024-01-31 07:00 1.44 3.57 63 3.00 48.2 48.0 0.45 274.0
2024-01-31 06:30 1.44 3.39 87 3.07 48.2 47.8 0.33 269.0
2024-01-31 06:00 1.44 3.70 89 3.07 48.2 49.8 0.49 267.0
2024-01-31 05:30 1.28 3.33 87 2.95 47.7 49.1 0.45 287.0
2024-01-31 05:00 1.21 3.17 90 2.92 47.7 48.4 0.21 304.0
2024-01-31 04:30 1.21 3.03 78 2.83 47.5 50.2 0.21 304.0
2024-01-31 04:00 1.28 3.51 86 2.98 47.8 48.7 0.23 353.0
2024-01-31 03:30 1.44 3.45 66 3.16 47.8 51.3 0.43 346.0
2024-01-31 03:00 1.71 3.39 51 3.37 48.2 51.8 0.39 340.0
2024-01-31 02:30 1.61 3.17 45 3.47 48.0 50.9 0.06 1.0
2024-01-31 02:00 1.51 10.53 310 3.56 48.2 49.5 0.23 11.0
2024-01-31 01:30 1.44 3.33 41 3.21 48.2 49.5 0.17 51.0
2024-01-31 01:00 1.54 3.17 38 2.95 48.4 51.1 0.23 31.0
2024-01-31 00:30 1.35 2.90 44 2.82 48.6 52.0 0.23 71.0
2024-01-31 00:00 1.28 2.70 40 2.87 48.6 50.0 0.27 89.0
2024-01-30 23:30 1.31 2.94 34 3.22 48.6 50.7 0.39 96.0
2024-01-30 23:00 1.08 11.76 304 3.89 48.7 49.1 0.49 94.0
2024-01-30 22:30 1.05 11.11 316 4.27 48.7 49.3 0.47 48.0
2024-01-30 22:00 0.95 10.53 309 4.43 48.7 48.7 0.33 38.0
2024-01-30 21:30 0.85 12.50 304 4.31 48.7 48.4 0.27 54.0
2024-01-30 21:00 0.92 10.53 301 5.96 48.7 48.2 0.33 316.0
2024-01-30 20:30 0.98 10.53 296 7.00 48.7 48.6 0.51 313.0
2024-01-30 20:00 0.89 14.29 307 6.89 48.6 48.7 0.76 294.0
2024-01-30 19:30 0.92 14.29 310 7.14 48.6 49.5 0.60 259.0
2024-01-30 19:00 0.79 13.33 300 6.74 48.7 49.8 1.11 267.0
2024-01-30 18:30 0.75 14.29 304 7.60 48.7 50.4 1.09 261.0
2024-01-30 18:00 0.79 15.38 320 7.25 48.7 49.8 0.99 250.0
2024-01-30 17:30 0.72 13.33 307 6.75 48.7 49.5 0.76 243.0
2024-01-30 17:00 0.69 13.33 304 6.69 48.7 49.6 0.87 231.0
2024-01-30 16:30 0.69 11.76 313 5.15 48.7 50.7 0.66 195.0
2024-01-30 16:00 0.75 13.33 305 5.44 48.7 50.4 0.70 173.0
2024-01-30 15:30 0.79 12.50 300 4.84 48.7 49.8 1.11 155.0
2024-01-30 15:00 0.92 13.33 311 5.00 48.7 49.8 1.30 138.0
2024-01-30 14:30 1.08 14.29 314 4.60 48.7 49.3 1.11 87.0
2024-01-30 14:00 1.18 13.33 308 4.27 48.7 50.2 1.36 98.0
2024-01-30 13:30 1.28 13.33 318 3.90 48.7 49.5 1.65 106.0
2024-01-30 13:00 1.28 12.50 300 3.90 48.9 49.5 1.83 117.0
2024-01-30 12:30 1.38 8.70 313 3.36 48.7 50.0 1.81 122.0
2024-01-30 12:00 1.51 6.90 311 3.15 48.7 51.1 1.85 123.0
2024-01-30 11:30 1.54 13.33 316 2.93 48.7 50.9 1.54 115.0
2024-01-30 11:00 1.61 7.69 311 2.78 48.7 51.4 1.22 111.0
2024-01-30 10:30 1.87 9.09 314 3.09 48.7 52.3 1.36 122.0
2024-01-30 10:00 1.71 2.94 313 2.92 48.6 54.0 1.11 121.0
2024-01-30 09:30 1.51 2.99 318 2.81 47.5 51.4 1.03 108.0
2024-01-30 09:00 1.54 3.03 336 2.85 47.5 52.5 0.82 92.0
2024-01-30 08:30 1.48 2.99 352 2.85 47.7 54.0 0.76 79.0
2024-01-30 08:00 1.38 3.28 0 2.94 48.0 52.5 0.70 56.0
2024-01-30 07:30 1.44 2.74 341 2.89 48.4 52.9 0.56 48.0
2024-01-30 07:00 1.31 3.85 56 2.84 48.2 53.1 0.37 38.0
2024-01-30 06:30 1.21 13.33 303 2.99 48.2 54.7 0.19 308.0
2024-01-30 06:00 1.18 13.33 305 3.20 48.2 60.1 0.43 310.0
2024-01-30 05:30 1.25 3.92 84 2.97 48.0 56.8 0.37 306.0
2024-01-30 05:00 0.98 3.92 80 3.01 48.0 54.9 0.31 301.0
2024-01-30 04:30 0.69 12.50 305 3.77 47.5 53.1 0.21 324.0
2024-01-30 04:00 0.59 13.33 303 4.97 47.3 52.0 0.27 350.0
2024-01-30 03:30 0.66 13.33 303 4.59 47.3 50.7 0.37 36.0
2024-01-30 03:00 0.66 12.50 301 4.62 46.9 50.4 0.56 46.0
2024-01-30 02:30 0.66 14.29 308 5.56 47.5 53.2 0.41 49.0
2024-01-30 02:00 0.62 12.50 307 5.61 47.5 52.2 0.54 55.0
2024-01-30 01:30 0.59 13.33 302 4.20 47.5 53.1 0.49 34.0
2024-01-30 01:00 0.56 11.76 302 3.95
2024-01-30 00:30 0.59 11.76 318 4.58 47.8 51.8 0.37 115.0
2024-01-30 00:00 0.52 11.11 303 4.89 47.8 51.1 0.49 92.0
2024-01-29 23:30 0.59 11.11 297 4.82 47.8 50.0 0.54 118.0
2024-01-29 23:00 0.62 11.76 306 5.16 48.0 51.4 0.76 106.0
2024-01-29 22:30 0.66 12.50 307 5.57 47.8 51.3 0.51 101.0
2024-01-29 22:00 0.72 12.50 307 5.01 48.0 49.3 0.39 24.0
2024-01-29 21:30 0.72 12.50 308 5.09 48.9 50.9 0.33 285.0
2024-01-29 21:00 0.66 11.76 306 4.42 48.9 49.8 0.52 260.0
2024-01-29 20:30 0.62 12.50 320 3.71 48.9 50.2 0.62 247.0
2024-01-29 20:00 0.62 12.50 314 3.64 48.7 49.8 0.76 248.0
2024-01-29 19:30 0.66 2.99 81 3.89 48.9 48.9 0.70 257.0
2024-01-29 19:00 0.72 3.39 69 3.81 48.9 50.0 0.82 258.0
2024-01-29 18:30 0.75 3.51 69 4.09 48.7 50.2 0.91 256.0
2024-01-29 18:00 0.72 11.76 312 4.25 48.6 49.6 0.87 266.0
2024-01-29 17:30 0.72 12.50 309 4.13 48.6 49.6 0.80 258.0
2024-01-29 17:00 0.72 11.76 314 3.74 48.6 50.2 0.56 242.0
2024-01-29 16:30 0.82 11.76 325 3.38 48.6 51.3 0.54 181.0
2024-01-29 16:00 0.89 4.44 71 3.09 48.6 51.3 0.64 155.0
2024-01-29 15:30 0.89 12.50 317 2.81 48.6 50.7 0.89 122.0
2024-01-29 15:00 1.02 2.86 326 2.57 48.6 50.4 1.36 118.0
2024-01-29 14:30 1.18 2.86 314 2.48 48.6 50.9 1.65 103.0
2024-01-29 14:00 1.54 2.94 318 2.40 48.6 51.3 1.79 101.0
2024-01-29 13:30 1.87 3.03 318 2.65 48.4 50.7 1.94 98.0
2024-01-29 13:00 1.64 2.86 319 2.52 48.6 51.8 1.98 92.0
2024-01-29 12:30 0.59 11.11 301 6.29 48.6 51.4 1.92 93.0
2024-01-29 12:00 0.49 10.53 310 5.76 48.6 2.33 113.0
2024-01-29 11:30 0.49 11.76 321 4.96 48.4 2.10 108.0
2024-01-29 11:00 0.56 12.50 306 4.80 48.4 50.9 1.73 110.0
2024-01-29 10:30 0.62 4.44 67 4.42 48.4 50.5 1.81 123.0
2024-01-29 10:00 0.66 4.17 60 4.02 48.4 50.7 1.52 113.0
2024-01-29 09:30 0.72 4.08 68 3.59 46.8 50.5 0.76 80.0
2024-01-29 09:00 0.85 3.77 68 3.37 46.4 50.0 0.89 78.0
2024-01-29 08:30 0.98 3.92 63 3.24 45.7 49.5 0.93 81.0
2024-01-29 08:00 0.98 3.92 56 3.18 46.2 49.3 0.93 85.0
2024-01-29 07:30 1.21 3.85 64 3.24 47.1 48.7 0.56 82.0
2024-01-29 07:00 1.21 4.00 57 3.20 47.7 49.5 0.12 157.0
2024-01-29 06:30 1.41 4.17 67 3.44 47.7 50.2 0.12 250.0
2024-01-29 06:00 1.67 4.35 71 3.76 47.5 48.9 0.12 256.0
2024-01-29 05:30 1.74 4.35 76 4.19 47.3 48.7 0.21 258.0
2024-01-29 05:00 0.89 4.76 80 4.35 47.3 49.6 0.25 347.0
2024-01-29 04:30 0.49 14.29 305 4.61 47.1 49.8 0.21 304.0
2024-01-29 04:00 0.52 14.29 306 5.13 46.9 48.9 0.43 343.0
2024-01-29 03:30 0.56 14.29 299 4.37 46.9 47.7 0.27 344.0
2024-01-29 03:00 0.56 14.29 312 3.61 46.9 47.3 0.37 23.0
2024-01-29 02:30 0.56 14.29 309 3.55 46.9 48.0 0.33 43.0
2024-01-29 02:00 0.52 14.29 316 4.12 46.8 47.7 0.33 50.0
2024-01-29 01:30 0.49 14.29 305 4.97 46.8 49.6 0.49 35.0
2024-01-29 01:00 0.49 14.29 314 5.11 46.8 49.3 0.41 53.0
2024-01-29 00:30 0.49 13.33 321 5.29 46.8 49.3 0.45 52.0
2024-01-29 00:00 0.49 14.29 330 4.86 46.8 48.6 0.56 53.0
2024-01-28 23:30 0.56 13.33 312 5.14 46.6 48.7 0.74 52.0
2024-01-28 23:00 0.52 14.29 314 4.29 46.6 48.0 0.86 68.0
2024-01-28 22:30 0.56 13.33 328 4.18 46.4 48.2 0.87 66.0
2024-01-28 22:00 0.56 13.33 332 5.09 46.6 48.2 0.84 86.0
2024-01-28 21:30 0.62 12.50 308 4.97 48.6 48.4 0.16 267.0
2024-01-28 21:00 0.72 13.33 321 4.75 48.6 48.0 0.21 238.0
2024-01-28 20:30 0.69 14.29 317 5.27 48.6 48.2 0.35 249.0
2024-01-28 20:00 0.66 12.50 299 5.07 48.6 48.7 0.47 262.0
2024-01-28 19:30 0.69 13.33 313 5.51 48.6 48.6 0.68 272.0
2024-01-28 19:00 0.69 12.50 294 4.86 48.6 48.2 0.54 266.0
2024-01-28 18:30 0.69 14.29 307 4.41 48.6 48.2 0.47 266.0
2024-01-28 18:00 0.66 14.29 321 6.25 48.4 48.2 0.56 267.0
2024-01-28 17:30 0.66 14.29 319 6.56 48.4 48.2 0.58 275.0
2024-01-28 17:00 0.52 14.29 318 6.90 48.4 48.2 0.62 239.0
2024-01-28 16:30 0.52 15.38 308 6.97 48.4 48.4 0.64 182.0
2024-01-28 16:00 0.69 14.29 305 7.80 48.4 48.4 0.51 144.0
2024-01-28 15:30 0.75 14.29 310 7.69 48.4 48.6 0.76 109.0
2024-01-28 15:00 0.75 15.38 315 6.73 48.4 48.7 1.11 92.0
2024-01-28 14:30 0.72 15.38 328 6.18 48.4 48.4 1.44 106.0
2024-01-28 14:00 0.79 15.38 311 6.62 48.4 49.8 1.73 106.0
2024-01-28 13:30 0.75 14.29 305 6.47 48.4 49.6 2.04 108.0
2024-01-28 13:00 0.75 12.50 309 5.38 48.2 49.3 2.10 108.0
2024-01-28 12:30 0.75 14.29 310 5.78 48.2 49.6 2.47 102.0
2024-01-28 12:00 0.72 13.33 311 5.75 48.2 49.8 2.64 111.0
2024-01-28 11:30 0.79 7.69 303 5.48 48.2 49.8 2.66 110.0
2024-01-28 11:00 0.79 9.09 307 5.50 48.0 49.3 2.31 103.0
2024-01-28 10:30 0.72 8.00 314 5.31 48.0 49.1 2.22 109.0
2024-01-28 10:00 0.59 13.33 302 5.61 48.0 49.1 1.94 107.0
2024-01-28 09:30 0.66 8.33 307 5.29 48.0 49.5 1.85 102.0
2024-01-28 09:00 0.62 6.90 309 4.82 48.0 48.9 1.54 109.0
2024-01-28 08:30 0.62 9.09 335 4.61 47.8 48.7 1.67 100.0
2024-01-28 08:00 0.62 9.52 332 4.40 48.0 48.4 1.48 116.0
2024-01-28 07:30 0.72 8.00 330 3.98 48.0 48.2 0.68 122.0
2024-01-28 07:00 0.62 3.51 52 3.31 48.0 48.2 0.25 104.0
2024-01-28 06:30 0.66 3.13 45 3.23 47.8 48.7 0.19 19.0
2024-01-28 06:00 0.62 3.33 38 3.17 48.0 48.4 0.47 287.0
2024-01-28 05:30 0.62 3.39 41 3.48 48.0 48.7 0.95 264.0
2024-01-28 05:00 0.66 3.45 58 3.76 48.2 48.6 1.42 274.0
2024-01-28 04:30 0.49 8.70 307 3.95 48.2 48.7 1.09 283.0
2024-01-28 04:00 0.39 11.11 307 3.62 48.0 48.6 1.19 294.0
2024-01-28 03:30 0.43 8.70 307 3.16 47.8 48.9 0.72 291.0
2024-01-28 03:00 0.43 8.70 314 3.12 47.7 47.7 0.51 273.0
2024-01-28 02:30 0.52 2.99 76 2.74 47.3 47.8 0.35 263.0
2024-01-28 02:00 0.52 2.99 88 2.59 47.1 47.5 0.16 302.0
2024-01-28 01:30 0.62 3.13 71 2.56 47.3 47.8 0.06 320.0
2024-01-28 01:00 0.62 4.26 93 2.89 47.5 48.0 0.14 22.0
2024-01-28 00:30 0.59 3.45 73 3.32 48.0 48.4 0.17 74.0
2024-01-28 00:00 0.62 3.39 69 3.45 48.0 48.2 0.23 97.0
2024-01-27 23:30 0.59 3.64 79 3.39 48.2 48.4 0.54 92.0
2024-01-27 23:00 0.72 3.39 73 3.47 48.2 48.7 0.80 94.0
2024-01-27 22:30 0.75 3.45 66 3.64 48.2 48.7 0.89 98.0
2024-01-27 22:00 0.79 3.33 58 3.57 48.2 48.6 0.25 44.0
2024-01-27 21:30 0.85 3.45 61 3.64 48.2 48.2 0.10 94.0
2024-01-27 21:00 0.95 3.45 68 3.67 47.8 48.2 0.14 164.0
2024-01-27 20:30 0.95 4.17 67 3.58 48.0 48.0 0.37 177.0
2024-01-27 20:00 1.05 4.00 71 3.59 48.0 47.5 0.25 168.0
2024-01-27 19:30 1.12 3.85 72 3.53 48.0 47.7 0.29 233.0
2024-01-27 19:00 1.12 4.00 80 3.34 47.8 47.5 0.39 236.0
2024-01-27 18:30 1.25 3.77 72 3.44 47.8 47.5 0.39 253.0
2024-01-27 18:00 1.35 3.92 60 3.43 47.8 47.5 0.56 244.0
2024-01-27 17:30 1.18 4.17 64 3.39 47.8 47.7 0.54 240.0
2024-01-27 17:00 1.31 4.08 70 3.51 47.8 47.3 0.43 234.0
2024-01-27 16:30 1.35 4.55 55 3.40 47.8 47.5 0.39 157.0
2024-01-27 16:00 1.08 4.44 67 3.92 47.8 47.5 0.68 124.0
2024-01-27 15:30 0.95 10.53 306 4.66 47.8 48.6 0.66 114.0
2024-01-27 15:00 0.75 11.76 302 4.34 47.8 48.6 0.95 110.0
2024-01-27 14:30 0.69 12.50 314 4.17 47.8 48.4 1.40 107.0
2024-01-27 14:00 0.59 12.50 323 3.85 47.7 48.4 1.75 95.0
2024-01-27 13:30 0.62 10.00 295 3.76 47.7 48.7 2.08 98.0
2024-01-27 13:00 0.62 3.70 82 3.90 47.7 49.1 2.59 100.0
2024-01-27 12:30 0.75 9.52 318 4.33 47.7 48.7 2.86 107.0
2024-01-27 12:00 0.72 10.53 286 4.43 47.7 48.2 2.88 107.0
2024-01-27 11:30 0.82 10.00 306 4.53 47.7 47.8 3.21 102.0
2024-01-27 11:00 0.82 9.52 303 4.43 47.7 47.8 2.70 108.0
2024-01-27 10:30 0.85 8.33 309 4.66 47.7 47.5 2.84 108.0
2024-01-27 10:00 0.92 8.70 307 5.11 47.7 46.9 2.78 105.0
2024-01-27 09:30 0.85 8.70 304 4.89 47.7 47.1 2.68 105.0
2024-01-27 09:00 0.72 3.92 38 3.42 47.7 47.1 2.16 103.0
2024-01-27 08:30 0.72 3.85 39 3.53 47.7 46.8 2.04 95.0
2024-01-27 08:00 0.82 9.09 320 3.84 47.7 47.3 1.77 95.0
2024-01-27 07:30 0.95 3.92 47 3.75 47.7 46.9 1.59 88.0
2024-01-27 07:00 1.12 3.77 36 3.59 47.3 47.5 1.22 84.0
2024-01-27 06:30 1.15 3.85 36 3.41 47.1 46.9 0.76 87.0
2024-01-27 06:00 1.25 4.00 36 3.29 46.9 46.8 0.45 87.0
2024-01-27 05:30 1.54 4.08 41 3.38 46.8 46.6 0.23 35.0
2024-01-27 05:00 1.74 4.17 48 3.52 47.7 46.8 0.25 321.0
2024-01-27 04:30 1.84 4.08 50 3.45 47.7 46.9 0.52 271.0
2024-01-27 04:00 1.71 4.00 50 3.37 47.7 46.9 0.52 285.0
2024-01-27 03:30 1.31 3.85 54 3.11 47.7 0.56 248.0
2024-01-27 03:00 1.28 3.77 40 3.11 47.7 47.1 0.66 257.0
2024-01-27 02:30 1.15 3.33 64 3.04 47.7 46.9 0.74 244.0
2024-01-27 02:00 1.12 3.45 84 3.23 47.7 46.4 0.64 222.0
2024-01-27 01:30 1.12 4.00 67 3.15 47.7 46.4 0.58 214.0
2024-01-27 01:00 1.25 3.92 84 3.27 47.7 46.6 0.21 194.0
2024-01-27 00:30 1.28 3.70 73 3.28 47.7 46.6 0.14 120.0
2024-01-27 00:00 1.21 4.00 72 3.53 47.7 46.9 0.27 96.0
2024-01-26 23:30 1.31 4.44 54 3.81 47.7 47.5 0.47 87.0
2024-01-26 23:00 1.31 4.44 72 3.79 47.8 48.2 0.84 93.0
2024-01-26 22:30 1.15 4.55 67 3.83 47.8 48.0 0.99 91.0
2024-01-26 22:00 0.98 4.65 72 4.02 47.8 48.0 1.07 85.0
2024-01-26 21:30 1.02 4.17 43 4.24 48.0 47.1 0.84 85.0
2024-01-26 21:00 0.98 11.76 300 3.94 47.8 46.8 0.66 96.0
2024-01-26 20:30 0.98 3.28 41 3.50 47.8 46.9 0.54 104.0
2024-01-26 20:00 0.85 12.50 335 3.62 47.7 47.8 0.33 132.0
2024-01-26 19:30 0.85 7.14 297 4.18 47.7 46.8 0.27 176.0
2024-01-26 19:00 0.62 12.50 305 4.03 47.7 46.4 0.12 125.0
2024-01-26 18:30 0.69 11.76 305 4.15 47.7 46.0 0.10 247.0
2024-01-26 18:00 0.75 12.50 309 4.30 47.7 45.5 0.43 266.0
2024-01-26 17:30 0.75 12.50 304 3.61 47.7 45.5 0.68 248.0
2024-01-26 17:00 0.66 12.50 311 4.27 47.7 45.5 0.84 258.0
2024-01-26 16:30 0.52 12.50 321 4.15 47.7 45.5 0.74 238.0
2024-01-26 16:00 0.59 12.50 311 5.06 47.7 45.7 0.66 224.0
2024-01-26 15:30 0.62 13.33 310 5.31 47.7 45.5 0.47 191.0
2024-01-26 15:00 0.62 13.33 312 4.76 47.7 45.3 0.64 159.0
2024-01-26 14:30 0.72 11.76 305 5.04 47.7 45.1 0.95 140.0
2024-01-26 14:00 0.85 13.33 308 6.13 47.7 45.3 1.42 129.0
2024-01-26 13:30 0.89 12.50 304 6.79 47.7 45.9 2.25 115.0
2024-01-26 13:00 0.95 13.33 302 7.13 47.5 45.5 2.62 89.0
2024-01-26 12:30 1.02 6.90 303 6.13 47.5 45.9 2.66 94.0
2024-01-26 12:00 1.08 6.67 312 5.91 47.5 45.9 2.76 99.0
2024-01-26 11:30 1.25 7.14 303 5.84 47.7 45.9 2.62 103.0
2024-01-26 11:00 1.31 8.00 299 6.07 47.7 45.3 3.15 105.0
2024-01-26 10:30 1.21 6.45 292 6.08 47.5 45.9 3.09 98.0
2024-01-26 10:00 1.02 6.90 287 6.26 47.5 45.7 3.27 100.0
2024-01-26 09:30 1.21 11.76 295 6.77 47.3 45.3 2.66 104.0
2024-01-26 09:00 1.51 7.41 296 6.81 47.5 46.0 2.29 98.0
2024-01-26 08:30 1.31 10.53 295 6.68 47.3 45.5 1.65 94.0
2024-01-26 08:00 0.95 6.25 305 5.59 47.5 45.5 1.65 95.0
2024-01-26 07:30 0.89 8.70 303 6.17 47.5 45.9 1.87 100.0
2024-01-26 07:00 0.95 9.09 304 6.54 47.3 45.0 1.59 99.0
2024-01-26 06:30 0.92 8.70 315 6.32 47.3 44.4 0.91 117.0
2024-01-26 06:00 0.95 9.52 292 6.50 47.3 45.1 0.45 136.0
2024-01-26 05:30 0.82 8.33 318 5.71 47.3 45.7 0.31 142.0
2024-01-26 05:00 0.82 8.33 318 5.55 47.3 45.7 0.16 102.0
2024-01-26 04:30 0.79 6.67 296 4.81 47.3 46.0 0.33 310.0
2024-01-26 04:00 0.79 6.67 280 4.63 47.3 45.9 0.87 272.0
2024-01-26 03:30 0.79 7.14 295 4.30 47.5 46.2 1.24 276.0
2024-01-26 03:00 0.79 9.52 303 3.42 47.7 46.4 0.84 301.0
2024-01-26 02:30 0.85 14.29 313 3.39 47.7 46.8 0.80 288.0
2024-01-26 02:00 0.85 10.53 297 3.44 46.6 45.9 0.66 279.0
2024-01-26 01:30 0.95 10.53 294 3.46 46.6 46.2 0.52 268.0
2024-01-26 01:00 0.98 14.29 300 3.32 47.7 46.9 0.78 219.0
2024-01-26 00:30 0.92 14.29 308 3.42 46.8 46.9 0.37 242.0
2024-01-26 00:00 1.02 3.17 72 3.59 47.7 46.6 0.21 74.0
2024-01-25 23:30 1.31 3.64 63 4.11 47.7 47.1 0.33 75.0
2024-01-25 23:00 1.25 3.57 69 3.89 47.8 46.9 0.62 77.0
2024-01-25 22:30 1.28 3.45 62 3.92 47.7 47.1 0.62 94.0
2024-01-25 22:00 1.31 3.92 66 3.97 47.8 46.9 0.56 106.0
2024-01-25 21:30 1.41 4.00 60 3.80 47.7 46.4 0.47 130.0
2024-01-25 21:00 1.44 4.17 70 3.74 47.7 46.8 0.49 155.0
2024-01-25 20:30 1.35 8.70 290 4.11 47.8 46.9 0.31 170.0
2024-01-25 20:00 1.44 10.00 293 4.57 47.7 46.8 0.45 208.0
2024-01-25 19:30 1.38 15.38 303 4.56 47.7 46.6 0.49 187.0
2024-01-25 19:00 1.35 9.52 297 4.43 47.7 46.4 0.41 201.0
2024-01-25 18:30 1.41 11.76 301 4.47 47.5 46.8 0.54 234.0
2024-01-25 18:00 1.25 13.33 303 5.15 47.5 46.2 0.58 232.0
2024-01-25 17:30 1.31 14.29 303 5.40 47.7 46.4 0.74 236.0
2024-01-25 17:00 1.31 15.38 310 5.01 47.5 47.5 0.70 246.0
2024-01-25 16:30 1.44 14.29 304 5.21 47.5 45.7 0.51 247.0
2024-01-25 16:00 1.54 13.33 304 5.73 47.3 46.8 0.43 233.0
2024-01-25 15:30 1.21 15.38 303 5.04 47.3 46.2 0.12 212.0
2024-01-25 15:00 1.02 15.38 309 4.60 47.3 46.2 0.43 114.0
2024-01-25 14:30 0.85 14.29 301 5.19 47.3 45.7 0.62 110.0
2024-01-25 14:00 0.82 16.67 313 7.14 47.7 44.8 1.05 107.0
2024-01-25 13:30 0.62 12.50 303 7.16 47.5 44.8 1.34 100.0
2024-01-25 13:00 0.56 16.67 239 6.89 47.7 46.9 1.63 96.0
2024-01-25 12:30 0.56 16.67 303 7.02 47.5 46.6 2.06 104.0
2024-01-25 12:00 0.49 15.38 300 6.90 47.5 45.5 2.45 98.0
2024-01-25 11:30 0.56 10.00 306 6.66 47.5 46.2 2.72 99.0
2024-01-25 11:00 0.59 10.53 292 7.37 47.5 3.05 100.0
2024-01-25 10:30 0.52 11.76 292 6.63 47.7 45.5 3.15 100.0
2024-01-25 10:00 0.62 9.09 309 6.65 47.7 3.44 98.0
2024-01-25 09:30 0.62 10.53 303 6.70 47.3 45.0 3.11 101.0
2024-01-25 09:00 0.69 10.00 293 6.18 47.3 45.1 2.86 102.0
2024-01-25 08:30 0.66 10.53 296 5.93 47.3 45.3 2.62 103.0
2024-01-25 08:00 0.62 6.06 316 5.51 47.3 45.0 2.47 101.0
2024-01-25 07:30 0.62 8.33 326 4.42 47.3 45.7 2.16 103.0
2024-01-25 07:00 0.62 8.70 326 3.90 47.3 46.0 1.87 98.0
2024-01-25 06:30 0.66 10.00 331 4.58 47.1 46.0 1.56 90.0
2024-01-25 06:00 0.72 9.09 321 4.66 47.1 45.9 0.97 101.0
2024-01-25 05:30 0.79 10.00 293 4.95 46.6 43.9 0.54 115.0
2024-01-25 05:00 0.82 9.52 292 4.35 45.9 44.4 0.47 116.0
2024-01-25 04:30 0.79 9.09 308 3.74 46.2 0.25 111.0
2024-01-25 04:00 0.89 10.00 310 3.69 47.1 0.33 63.0
2024-01-25 03:30 0.82 10.00 318 3.12 47.1 0.12 360.0
2024-01-25 03:00 0.89 11.11 310 3.17 46.9 44.8 0.21 335.0
2024-01-25 02:30 0.82 9.09 315 3.10 46.8 0.64 282.0
2024-01-25 02:00 1.02 3.28 43 2.77 47.1 0.78 288.0
2024-01-25 01:30 1.12 3.23 55 2.89 46.8 0.82 299.0
2024-01-25 01:00 1.18 3.51 60 3.04 45.9 0.70 294.0
2024-01-25 00:30 1.08 3.70 60 3.09 46.4 0.60 286.0
2024-01-25 00:00 1.02 3.92 62 3.23 47.3 0.17 272.0
2024-01-24 23:30 1.12 4.26 62 3.45 47.3 0.14 186.0
2024-01-24 23:00 1.08 4.44 61 3.48 47.3 46.2 0.39 161.0
2024-01-24 22:30 1.15 4.65 62 3.55 47.3 47.1 0.49 114.0
2024-01-24 22:00 1.12 4.55 60 3.73 47.5 47.3 0.74 122.0
2024-01-24 21:30 1.25 13.33 295 3.91 47.5 47.5 0.93 128.0
2024-01-24 21:00 1.35 4.55 67 3.83 47.5 1.07 129.0
2024-01-24 20:30 1.61 4.08 62 3.89 47.8 46.4 0.80 115.0
2024-01-24 20:00 1.84 4.26 66 3.88 47.5 46.2 0.62 113.0
2024-01-24 19:30 2.03 4.65 69 3.98 47.3 0.56 125.0
2024-01-24 19:00 2.00 4.88 61 3.93 47.1 0.35 159.0
2024-01-24 18:30 2.23 4.65 68 4.10 47.1 0.17 217.0
2024-01-24 18:00 2.46 5.13 66 4.14 47.1 0.06 346.0
2024-01-24 17:30 2.99 5.13 70 4.40 47.1 45.0 0.08 199.0
2024-01-24 17:00 2.66 5.00 65 4.22 47.1 45.3 0.10 245.0
2024-01-24 16:30 2.59 4.88 62 4.17 47.1 44.6 0.17 254.0
2024-01-24 16:00 2.36 4.65 63 4.09 47.1 44.2 0.10 215.0
2024-01-24 15:30 1.71 4.44 49 3.82 47.1 44.6 0.12 154.0
2024-01-24 15:00 1.08 4.08 55 3.86 47.1 44.6 0.27 112.0
2024-01-24 14:30 0.75 10.53 303 3.77 47.1 44.8 0.37 102.0
2024-01-24 14:00 0.66 11.76 305 3.60 47.1 44.8 0.45 78.0
2024-01-24 13:30 0.69 14.29 309 3.94 47.1 45.1 0.78 90.0
2024-01-24 13:00 0.72 14.29 333 4.44 47.1 45.0 1.13 95.0
2024-01-24 12:30 0.72 14.29 289 4.64 47.1 1.57 92.0
2024-01-24 12:00 0.75 14.29 306 5.20 47.1 45.1 2.06 89.0
2024-01-24 11:30 0.66 14.29 307 5.95 47.1 2.84 94.0
2024-01-24 11:00 0.52 12.50 280 4.80 47.1 45.1 3.15 95.0
2024-01-24 10:30 0.62 8.00 290 4.68 47.1 45.0 3.62 96.0
2024-01-24 10:00 1.21 22.22 187 9.69 47.1 46.8 3.63 95.0
2024-01-24 09:30 0.98 18.18 199 8.03 47.1 45.7 2.74 100.0
2024-01-24 09:00 0.75 15.38 298 5.17 47.1 46.4 2.51 97.0
2024-01-24 08:30 0.92 9.52 283 6.37 47.1 46.4 2.39 104.0
2024-01-24 08:00 1.02 13.33 298 6.99 46.9 46.2 2.35 106.0
2024-01-24 07:30 0.92 9.09 285 6.08 47.1 45.7 1.73 87.0
2024-01-24 07:00 0.92 13.33 313 5.80 47.1 45.5 1.65 96.0
2024-01-24 06:30 0.82 14.29 303 5.89 47.1 46.0 0.86 101.0
2024-01-24 06:00 0.75 14.29 298 5.16 47.1 46.0 0.82 120.0
2024-01-24 05:30 0.69 9.52 290 5.32 47.3 46.2 0.89 91.0
2024-01-24 05:00 0.72 10.00 280 6.01 47.3 46.4 0.66 93.0
2024-01-24 04:30 0.82 10.53 291 6.06 47.3 46.4 0.14 196.0
2024-01-24 04:00 0.82 15.38 304 5.48 47.3 46.0 0.49 239.0
2024-01-24 03:30 0.82 15.38 306 4.99 47.3 46.4 0.54 257.0
2024-01-24 03:00 0.66 9.52 288 5.04 47.3 46.9 0.68 247.0
2024-01-24 02:30 0.66 6.67 295 4.71 47.3 47.1 0.62 255.0
2024-01-24 02:00 0.62 6.90 298 4.27 47.3 46.8 1.03 256.0
2024-01-24 01:30 0.72 6.67 277 4.11 47.3 47.1 1.15 277.0
2024-01-24 01:00 0.59 6.67 302 4.33 47.3 47.1 1.67 274.0
2024-01-24 00:30 0.39 16.67 308 5.77 47.3 1.36 274.0
2024-01-24 00:00 0.36 16.67 302 5.77 47.3 1.11 275.0
2024-01-23 23:30 0.46 16.67 312 5.43 47.3 46.8 1.11 287.0
2024-01-23 23:00 0.49 16.67 302 5.83 47.3 46.8 1.09 279.0
2024-01-23 22:30 0.52 16.67 301 6.15 47.3 46.6 1.01 277.0
2024-01-23 22:00 0.62 9.09 294 6.63 47.3 46.6 0.89 277.0
2024-01-23 21:30 0.75 9.09 292 7.32 47.3 46.6 0.86 259.0
2024-01-23 21:00 0.62 9.52 294 6.61 47.3 46.0 0.76 254.0
2024-01-23 20:30 0.62 8.70 286 6.13 47.3 45.9 0.76 251.0
2024-01-23 20:00 0.52 9.52 285 4.88 47.3 45.9 0.80 234.0
2024-01-23 19:30 0.43 9.09 292 5.52 47.3 46.0 0.21 295.0
2024-01-23 19:00 0.75 9.09 299 5.44 47.3 45.7 0.35 246.0
2024-01-23 18:30 0.82 11.11 298 7.53 47.3 45.3 0.56 248.0
2024-01-23 18:00 0.82 11.11 294 7.68 47.1 44.8 0.60 249.0
2024-01-23 17:30 0.69 9.09 282 6.89 47.1 44.2 0.91 259.0
2024-01-23 17:00 0.69 8.70 282 7.03 47.1 43.9 1.11 260.0
2024-01-23 16:30 0.59 9.52 289 7.44 47.1 43.7 1.21 259.0
2024-01-23 16:00 0.66 9.52 283 7.64 47.1 44.6 0.82 259.0
2024-01-23 15:30 0.66 10.00 282 7.92 46.9 45.0 0.60 259.0
2024-01-23 15:00 0.66 10.53 288 6.39 46.9 44.8 0.62 267.0
2024-01-23 14:30 0.72 10.00 289 5.65 46.8 44.8 0.39 273.0
2024-01-23 14:00 0.59 10.53 291 6.33 46.8 44.8 0.21 267.0
2024-01-23 13:30 0.72 10.00 291 6.29 46.9 45.1 0.16 262.0
2024-01-23 13:00 0.89 11.76 291 6.50 46.9 45.3 0.12 144.0
2024-01-23 12:30 0.79 11.11 292 7.01 47.1 45.9 0.33 123.0
2024-01-23 12:00 0.92 10.53 292 6.76 47.1 45.5 0.68 117.0
2024-01-23 11:30 0.98 9.52 287 6.27 47.1 45.1 0.95 119.0
2024-01-23 11:00 1.15 9.52 281 6.31 47.1 45.5 1.54 104.0
2024-01-23 10:30 1.05 9.52 282 6.77 47.1 45.5 1.42 97.0
2024-01-23 10:00 1.18 10.53 283 6.70 47.1 45.7 1.94 103.0
2024-01-23 09:30 1.28 9.52 282 6.60 47.1 45.1 1.79 96.0
2024-01-23 09:00 1.15 10.53 284 6.62 47.1 45.3 2.00 94.0
2024-01-23 08:30 1.12 10.53 288 7.05 47.1 45.7 1.73 93.0
2024-01-23 08:00 1.02 9.09 285 6.74 47.1 46.0 1.87 104.0
2024-01-23 07:30 1.05 8.33 289 7.14 47.1 46.0 1.69 93.0
2024-01-23 07:00 1.02 10.00 288 7.26 47.1 45.9 1.63 94.0
2024-01-23 06:30 0.92 9.09 297 6.97 47.1 45.5 1.26 94.0
2024-01-23 06:00 0.72 8.00 289 6.24 47.1 46.4 0.93 88.0
2024-01-23 05:30 0.75 8.33 296 6.21 47.1 46.2 0.80 101.0
2024-01-23 05:00 0.72 10.00 283 6.24 47.1 46.2 0.76 114.0
2024-01-23 04:30 0.89 10.00 295 6.45 47.1 45.9 0.54 127.0
2024-01-23 04:00 0.79 10.00 298 5.27 47.1 45.7 0.17 148.0
2024-01-23 03:30 0.72 10.00 283 4.46 47.1 45.9 0.37 197.0
2024-01-23 03:00 0.66 10.53 293 3.60 47.1 46.6 0.29 196.0
2024-01-23 02:30 0.72 10.53 296 3.09 47.1 46.8 0.21 258.0
2024-01-23 02:00 0.69 11.11 284 2.95 47.1 46.8 0.62 273.0
2024-01-23 01:30 0.69 10.53 283 2.85 47.1 46.8 0.93 258.0
2024-01-23 01:00 0.69 10.53 282 3.65 47.1 46.4 1.83 255.0
2024-01-23 00:30 0.72 11.11 290 3.43 47.1 46.2 1.46 273.0
2024-01-23 00:00 0.72 10.53 307 3.19 47.1 46.2 1.98 271.0
2024-01-22 23:30 0.85 11.11 301 3.37 47.1 46.6 1.85 281.0
2024-01-22 23:00 0.95 11.11 294 3.76 47.3 46.8 1.46 276.0
2024-01-22 22:30 1.02 10.53 301 4.11 47.3 46.8 1.17 284.0
2024-01-22 22:00 1.02 10.53 292 3.92 47.1 46.6 1.22 286.0
2024-01-22 21:30 0.92 11.11 296 3.81 47.1 1.17 267.0
2024-01-22 21:00 0.95 11.11 297 3.59 47.1 1.09 265.0
2024-01-22 20:30 1.02 11.76 295 3.61 47.1 1.15 256.0
2024-01-22 20:00 0.95 11.76 295 3.20 47.1 46.4 1.15 249.0
2024-01-22 19:30 1.05 11.11 295 3.53 47.1 46.4 1.05 253.0
2024-01-22 19:00 1.18 11.11 291 2.92 46.9 46.9 0.23 4.0
2024-01-22 18:30 1.31 3.57 56 2.74 46.8 46.8 0.19 241.0
2024-01-22 18:00 1.38 3.70 52 3.01 46.8 46.6 0.14 257.0
2024-01-22 17:30 1.35 3.64 47 3.25 46.6 46.4 0.33 235.0
2024-01-22 17:00 1.15 3.57 54 3.40 46.8 46.0 0.33 232.0
2024-01-22 16:30 1.21 3.45 47 3.33 46.6 45.7 0.31 235.0
2024-01-22 16:00 1.35 3.70 50 3.23 46.6 45.5 0.27 243.0
2024-01-22 15:30 1.48 3.77 54 3.18
2024-01-22 15:00 1.74 3.85 53 3.05 46.8 46.4 0.39 258.0
2024-01-22 14:30 1.94 3.85 45 3.12 46.8 45.3 0.29 276.0
2024-01-22 14:00 1.67 4.08 43 3.57 46.6 44.8 0.23 283.0
2024-01-22 13:30 1.35 4.55 49 3.98 46.6 44.6 0.02 258.0
2024-01-22 13:00 1.31 4.26 47 4.26 46.6 44.1 0.08 19.0
2024-01-22 12:30 1.35 4.35 67 4.41 46.6 44.8 0.23 104.0
2024-01-22 12:00 1.25 4.26 61 4.32 46.6 44.6 0.45 88.0
2024-01-22 11:30 1.02 10.00 292 4.21 46.8 44.6 0.80 89.0
2024-01-22 11:00 0.98 4.44 65 4.21 46.8 44.8 1.09 95.0
2024-01-22 10:30 1.02 10.53 292 4.23 46.8 45.3 1.42 100.0
2024-01-22 10:00 0.92 5.26 63 3.53 46.8 45.3 1.67 96.0
2024-01-22 09:30 0.89 3.28 17 3.49 46.8 45.7 1.89 91.0
2024-01-22 09:00 0.75 3.39 20 3.60 46.8 45.1 1.98 87.0
2024-01-22 08:30 0.66 11.11 292 3.75 46.9 45.1 2.12 96.0
2024-01-22 08:00 0.69 5.26 58 4.08 46.9 45.3 1.63 98.0
2024-01-22 07:30 0.69 9.52 288 3.73 46.9 45.3 1.61 107.0
2024-01-22 07:00 0.59 8.00 276 3.65 46.9 45.1 1.63 97.0
2024-01-22 06:30 0.59 9.52 302 3.53 47.1 45.0 1.36 81.0
2024-01-22 06:00 0.66 10.00 291 2.92 47.3 45.1 1.09 70.0
2024-01-22 05:30 0.66 10.53 295 2.95 47.3 45.0 0.76 72.0
2024-01-22 05:00 0.72 10.53 293 2.83 47.1 45.3 0.27 129.0
2024-01-22 04:30 0.69 3.28 35 2.90 47.1 45.5 0.56 176.0
2024-01-22 04:00 0.56 3.45 52 3.07 47.3 45.5 0.64 149.0
2024-01-22 03:30 0.72 3.45 63 3.14 47.1 45.1 0.82 120.0
2024-01-22 03:00 0.72 3.45 56 2.89 47.1 45.1 0.49 115.0
2024-01-22 02:30 0.85 3.70 34 2.88 47.1 45.5 0.17 121.0
2024-01-22 02:00 0.79 3.70 29 2.82 47.1 45.7 0.21 255.0
2024-01-22 01:30 0.79 2.99 37 2.63 47.1 45.5 0.62 251.0
2024-01-22 01:00 0.82 3.57 45 2.63 47.1 1.01 255.0
2024-01-22 00:30 0.79 3.13 20 2.76 47.1 45.3 1.01 266.0
2024-01-22 00:00 0.89 3.33 29 3.03 46.9 45.9 1.26 273.0
2024-01-21 23:30 0.98 3.70 46 3.10 47.1 45.5 1.36 276.0
2024-01-21 23:00 1.05 3.57 53 3.17 46.9 46.0 1.05 280.0
2024-01-21 22:30 1.25 3.64 55 3.10 46.0 46.0 0.91 296.0
2024-01-21 22:00 1.15 3.45 64 3.25 45.7 45.9 0.64 276.0
2024-01-21 21:30 1.12 3.70 58 3.46 45.9 45.1 0.52 267.0
2024-01-21 21:00 0.95 3.70 59 3.51 46.0 44.4 0.47 256.0
2024-01-21 20:30 0.92 4.08 71 3.35 45.9 44.8 0.35 276.0
2024-01-21 20:00 0.95 11.76 297 3.60 46.0 45.0 0.06 271.0
2024-01-21 19:30 0.95 10.53 300 3.46 45.0 44.6 0.04 274.0
2024-01-21 19:00 0.98 4.17 51 3.55 46.4 44.6 0.04 199.0
2024-01-21 18:30 0.98 4.44 67 3.52 46.4 44.2 0.08 124.0
2024-01-21 18:00 0.98 11.11 299 3.62 46.4 44.4 0.06 165.0
2024-01-21 17:30 0.95 10.00 300 3.56 46.4 43.5 0.29 173.0
2024-01-21 17:00 1.05 10.53 299 3.43 46.4 43.7 0.19 173.0
2024-01-21 16:30 1.08 3.85 60 3.08 46.4 44.2 0.17 163.0
2024-01-21 16:00 1.12 4.35 53 3.03 46.4 0.33 174.0
2024-01-21 15:30 1.15 3.85 58 3.00 46.4 44.4 0.21 191.0
2024-01-21 15:00 1.21 3.57 60 2.86 46.4 45.0 0.37 182.0
2024-01-21 14:30 1.35 3.77 51 2.81 46.4 44.4 0.27 155.0
2024-01-21 14:00 1.25 2.90 28 2.79 46.4 43.9 0.25 143.0
2024-01-21 13:30 1.18 2.78 31 2.75 46.4 43.3 0.29 145.0
2024-01-21 13:00 1.12 3.08 39 2.65 46.4 43.5 0.51 146.0
2024-01-21 12:30 1.15 3.39 51 2.69 46.4 43.5 0.58 124.0
2024-01-21 12:00 1.28 3.57 49 2.84 46.4 43.7 0.66 122.0
2024-01-21 11:30 1.44 3.64 72 2.97 46.4 44.2 0.93 116.0
2024-01-21 11:00 1.57 3.77 75 3.09 46.4 44.2 1.15 109.0
2024-01-21 10:30 1.51 3.92 80 3.10 46.6 43.7 1.32 115.0
2024-01-21 10:00 1.25 3.85 89 3.01 46.6 43.5 1.34 108.0
2024-01-21 09:30 1.05 3.92 90 3.26 46.8 43.9 1.71 106.0
2024-01-21 09:00 1.05 10.53 279 3.24 46.9 43.9 1.81 96.0
2024-01-21 08:30 1.08 3.85 65 3.41 46.9 43.5 1.98 99.0
2024-01-21 08:00 1.15 3.85 57 3.47 47.3 43.5 1.87 97.0
2024-01-21 07:30 1.15 3.57 51 3.18 47.1 43.5 1.40 97.0
2024-01-21 07:00 1.02 3.45 39 3.10 46.9 43.2 1.48 98.0
2024-01-21 06:30 1.18 3.17 33 2.91 46.9 43.0 1.46 108.0
2024-01-21 06:00 1.05 3.03 29 2.78 46.9 43.3 1.67 95.0
2024-01-21 05:30 1.15 2.86 23 2.85 47.3 43.2 0.95 66.0
2024-01-21 05:00 0.92 8.70 277 3.01 47.1 42.4 0.54 63.0
2024-01-21 04:30 0.79 9.52 280 3.22 47.1 42.4 0.27 72.0
2024-01-21 04:00 0.79 10.53 305 3.47 47.1 42.8 0.25 175.0
2024-01-21 03:30 0.69 9.52 308 3.69 47.1 42.8 0.31 114.0
2024-01-21 03:00 0.69 10.00 316 3.41 46.9 42.8 0.27 141.0
2024-01-21 02:30 0.79 9.52 329 2.65 46.9 43.2 0.51 178.0
2024-01-21 02:00 0.95 2.90 12 2.55 46.9 43.5 0.66 223.0
2024-01-21 01:30 1.05 10.00 331 2.50 47.3 43.5 0.93 214.0
2024-01-21 01:00 1.18 10.53 322 2.52 47.3 43.5 0.23 191.0
2024-01-21 00:30 1.31 2.94 22 2.47 47.3 43.5 0.43 262.0
2024-01-21 00:00 1.41 2.94 25 2.40 47.3 43.5 0.62 257.0
2024-01-20 23:30 1.41 11.11 283 2.57 47.1 43.0 1.21 259.0
2024-01-20 23:00 1.15 2.74 13 2.38 46.8 43.0 1.38 267.0
2024-01-20 22:30 1.18 2.82 27 2.40 46.9 43.2 1.17 270.0
2024-01-20 22:00 1.18 2.82 24 2.23 46.9 43.2 0.76 288.0
2024-01-20 21:30 1.08 11.11 314 2.36 46.8 43.0 0.82 292.0
2024-01-20 21:00 0.92 11.76 293 2.26 46.0 43.0 0.66 295.0
2024-01-20 20:30 0.85 11.11 293 2.39 46.0 43.0 0.62 321.0
2024-01-20 20:00 0.85 11.11 298 2.67 46.4 42.8 0.37 4.0
2024-01-20 19:30 0.75 11.11 294 3.17 46.2 42.6 0.19 11.0
2024-01-20 19:00 0.72 10.53 292 3.43 46.6 42.4 0.35 43.0
2024-01-20 18:30 0.75 10.53 295 3.50 46.6 42.6 0.41 65.0
2024-01-20 18:00 0.89 11.11 297 3.43 46.8 42.4 0.84 57.0
2024-01-20 17:30 1.05 10.53 300 3.52 46.8 41.9 0.91 69.0
2024-01-20 17:00 1.05 10.53 295 3.45 46.9 42.4 1.01 78.0
2024-01-20 16:30 1.02 10.53 291 3.21 46.9 42.4 0.84 116.0
2024-01-20 16:00 1.02 3.17 59 3.28 46.8 42.4 0.76 109.0
2024-01-20 15:30 1.12 3.45 62 2.89 46.8 42.4 0.39 123.0
2024-01-20 15:00 1.05 3.33 48 2.75 46.8 42.4 0.47 140.0
2024-01-20 14:30 1.08 3.23 44 2.78 46.8 42.4 0.37 143.0
2024-01-20 14:00 1.12 11.11 291 2.87 46.8 42.6 0.43 151.0
2024-01-20 13:30 1.18 11.11 284 2.97 46.8 43.0 0.37 164.0
2024-01-20 13:00 1.15 11.11 287 2.72 46.8 42.4 0.45 152.0
2024-01-20 12:30 1.18 3.08 48 2.77 46.8 43.2 0.51 118.0
2024-01-20 12:00 1.31 10.53 293 3.01 46.9 43.0 0.39 122.0
2024-01-20 11:30 1.28 10.53 288 2.89 46.9 43.5 0.56 132.0
2024-01-20 11:00 1.44 11.11 279 3.08 46.9 43.5 0.84 112.0
2024-01-20 10:30 1.64 3.13 61 3.09 46.9 43.5 0.87 100.0
2024-01-20 10:00 1.67 3.51 72 3.14 46.9 43.5 1.17 99.0
2024-01-20 09:30 1.71 3.51 73 3.20 47.1 43.3 1.21 105.0
2024-01-20 09:00 1.57 3.57 83 3.17 47.1 43.9 1.42 103.0
2024-01-20 08:30 1.44 3.39 76 3.12 47.1 43.7 1.54 108.0
2024-01-20 08:00 1.35 3.70 60 3.17 47.1 43.3 1.87 98.0
2024-01-20 07:30 1.18 3.51 57 3.04 47.3 43.5 1.03 61.0
2024-01-20 07:00 1.08 3.57 64 2.91 47.3 43.9 0.82 61.0
2024-01-20 06:30 1.02 3.85 57 2.96 47.3 43.7 0.70 74.0
2024-01-20 06:00 1.08 3.85 63 2.91 47.3 43.5 0.62 84.0
2024-01-20 05:30 1.25 4.00 66 2.97 47.3 43.2 0.74 61.0
2024-01-20 05:00 1.28 3.70 41 2.89 47.3 43.2 0.60 72.0
2024-01-20 04:30 1.28 3.64 34 2.83 47.3 43.2 0.23 85.0
2024-01-20 04:00 1.44 3.57 34 2.82 47.3 42.6 0.27 108.0
2024-01-20 03:30 1.57 3.17 19 2.80 47.3 42.3 0.17 84.0
2024-01-20 03:00 1.74 3.39 25 2.78 47.3 42.1 0.45 188.0
2024-01-20 02:30 1.41 3.45 26 2.60 47.3 42.4 0.66 186.0
2024-01-20 02:00 1.71 3.23 19 2.62 47.3 42.4 0.58 182.0
2024-01-20 01:30 1.61 2.86 21 2.53 47.3 42.1 0.43 186.0
2024-01-20 01:00 1.80 3.39 12 2.64 47.3 41.9 1.03 220.0
2024-01-20 00:30 1.77 3.23 20 2.71 47.3 41.9 0.41 182.0
2024-01-20 00:00 1.74 3.39 16 2.74 47.3 41.7 0.16 156.0
2024-01-19 23:30 1.94 3.33 23 2.79 47.1 42.3 0.21 285.0
2024-01-19 23:00 2.07 3.23 19 2.81 47.3 0.60 254.0
2024-01-19 22:30 1.57 3.23 16 2.48 47.1 1.15 266.0
2024-01-19 22:00 1.84 3.23 30 2.54 46.9 41.4 1.46 267.0
2024-01-19 21:30 2.07 3.08 37 2.56 46.9 41.0 1.44 265.0
2024-01-19 21:00 2.13 3.23 38 2.54 46.9 41.4 1.01 273.0
2024-01-19 20:30 2.33 3.23 43 2.69 46.8 41.4 0.99 263.0
2024-01-19 20:00 2.43 3.64 42 2.81 46.8 41.0 0.76 261.0
2024-01-19 19:30 2.33 3.77 42 2.80 46.8 41.0 0.41 269.0
2024-01-19 19:00 2.36 3.77 37 3.02 46.8 40.8 0.17 9.0
2024-01-19 18:30 2.56 3.92 47 3.16 46.6 40.6 0.16 38.0
2024-01-19 18:00 2.59 3.77 51 3.28 46.6 40.6 0.35 57.0
2024-01-19 17:30 2.30 3.92 49 3.25 46.6 40.5 0.47 66.0
2024-01-19 17:00 2.43 4.00 48 3.37 46.8 40.6 0.66 67.0
2024-01-19 16:30 2.72 4.26 60 3.51 46.8 39.9 0.64 84.0
2024-01-19 16:00 2.82 4.35 58 3.60 46.8 39.9 0.76 90.0
2024-01-19 15:30 2.69 4.44 53 3.57 46.8 40.5 0.76 79.0
2024-01-19 15:00 2.89 4.17 48 3.65 46.9 41.7 0.74 96.0
2024-01-19 14:30 2.76 4.44 52 3.61 46.9 0.74 103.0
2024-01-19 14:00 2.59 4.55 47 3.60 47.1 40.3 0.66 111.0
2024-01-19 13:30 2.69 4.44 53 3.53 47.1 40.6 0.56 121.0
2024-01-19 13:00 2.95 4.26 48 3.55 47.1 41.7 0.56 126.0
2024-01-19 12:30 3.05 4.17 49 3.46 47.1 0.54 139.0
2024-01-19 12:00 3.15 4.08 45 3.42 47.1 39.2 0.47 111.0
2024-01-19 11:30 3.44 4.26 41 3.48 47.3 0.39 138.0
2024-01-19 11:00 3.28 4.44 47 3.51 47.3 0.33 147.0
2024-01-19 10:30 3.48 4.35 55 3.62 47.3 0.45 153.0
2024-01-19 10:00 3.81 4.55 55 3.70 47.3 0.39 126.0
2024-01-19 09:30 3.84 4.76 62 3.84 47.1 0.43 113.0
2024-01-19 09:00 3.58 4.55 56 3.85 47.1 40.3 0.47 116.0
2024-01-19 08:30 4.27 4.88 59 4.07 47.1 0.68 107.0
2024-01-19 08:00 4.07 5.13 56 4.11 47.1 0.84 104.0
2024-01-19 07:30 3.81 4.88 57 4.15 47.1 40.8 0.87 86.0
2024-01-19 07:00 3.71 5.26 48 4.27 47.3 39.9 0.86 82.0
2024-01-19 06:30 3.54 4.88 53 4.32 47.1 39.0 0.84 73.0
2024-01-19 06:00 3.18 5.13 52 4.25 47.3 38.7 0.86 83.0
2024-01-19 05:30 3.31 5.00 49 4.31 46.9 39.0 0.97 85.0
2024-01-19 05:00 3.22 4.76 46 4.05 47.3 39.0 0.89 75.0
2024-01-19 04:30 2.72 4.76 44 3.89 47.3 38.7 0.76 56.0
2024-01-19 04:00 2.69 4.55 37 3.84 47.5 38.8 0.72 38.0
2024-01-19 03:30 2.99 4.65 37 3.87 47.5 38.5 0.80 50.0
2024-01-19 03:00 2.82 4.17 31 3.61 47.3 0.37 51.0
2024-01-19 02:30 2.46 4.00 28 3.38 47.3 38.7 0.31 198.0
2024-01-19 02:00 2.13 4.08 41 2.89 47.3 38.3 0.66 182.0
2024-01-19 01:30 2.10 3.85 30 2.86 47.5 37.4 0.56 132.0
2024-01-19 01:00 2.79 3.57 26 3.11 47.3 37.9 0.43 164.0
2024-01-19 00:30 2.62 3.51 33 3.04 47.3 37.6 0.68 212.0
2024-01-19 00:00 2.53 3.51 35 2.94 47.3 37.6 0.45 135.0
2024-01-18 23:30 2.53 3.45 38 3.01 47.3 37.2 0.17 161.0
2024-01-18 23:00 2.56 3.45 38 3.00 47.3 37.4 0.35 261.0
2024-01-18 22:30 2.66 4.00 24 2.93 47.3 37.8 0.60 253.0
2024-01-18 22:00 2.62 3.77 24 2.84 46.9 37.9 0.91 270.0
2024-01-18 21:30 2.56 3.85 29 2.79 46.9 37.6 1.05 283.0
2024-01-18 21:00 2.49 3.70 58 2.81 46.8 37.8 1.50 284.0
2024-01-18 20:30 2.89 3.77 56 3.12 46.8 37.0 1.40 291.0
2024-01-18 20:00 3.54 4.00 60 3.23 46.9 37.0 1.15 277.0
2024-01-18 19:30 3.48 3.92 62 3.21 46.8 37.0 0.84 267.0
2024-01-18 19:00 3.31 3.85 75 3.20 46.8 36.5 0.54 262.0
2024-01-18 18:30 3.08 3.92 61 3.19 46.8 36.3 0.10 33.0
2024-01-18 18:00 2.76 4.00 64 3.24 46.8 36.1 0.21 133.0
2024-01-18 17:30 2.76 4.35 50 3.30 46.8 35.2 0.47 120.0
2024-01-18 17:00 2.72 3.85 56 3.35 46.8 35.4 0.84 123.0
2024-01-18 16:30 2.69 4.35 61 3.39 46.8 35.8 1.17 115.0
2024-01-18 16:00 2.56 3.85 53 3.40 46.8 36.7 1.50 110.0
2024-01-18 15:30 2.49 4.26 53 3.43 46.8 39.0 1.36 96.0
2024-01-18 15:00 2.10 3.77 40 3.31 46.9 1.52 96.0
2024-01-18 14:30 2.30 3.92 42 3.37 46.8 1.38 92.0
2024-01-18 14:00 2.13 3.77 41 3.30 47.1 37.2 1.11 92.0
2024-01-18 13:30 2.13 4.00 33 3.22 47.1 37.2 0.86 71.0
2024-01-18 13:00 2.07 3.51 34 3.18 47.3 38.1 0.70 84.0
2024-01-18 12:30 2.07 3.70 25 3.13 47.3 38.5 0.35 99.0
2024-01-18 12:00 2.13 3.64 33 2.98 47.3 37.6 0.23 210.0
2024-01-18 11:30 2.03 3.57 29 2.88 47.3 37.8 0.19 239.0
2024-01-18 11:00 2.10 3.33 31 2.94 47.3 38.3 0.39 241.0
2024-01-18 10:30 2.23 3.51 29 2.96 47.3 36.7 0.70 265.0
2024-01-18 10:00 2.13 3.33 19 2.85 47.3 36.3 0.52 253.0
2024-01-18 09:30 2.43 3.51 23 2.86 47.3 36.3 0.41 271.0
2024-01-18 09:00 2.43 3.23 30 2.98 47.3 37.8 0.37 281.0
2024-01-18 08:30 2.36 3.08 37 3.06 47.3 37.9 0.52 270.0
2024-01-18 08:00 2.40 3.33 32 3.04 47.1 38.1 0.41 296.0
2024-01-18 07:30 2.03 3.03 25 3.10 47.3 38.3 0.17 3.0
2024-01-18 07:00 1.84 7.69 291 3.17 47.3 37.9 0.16 46.0
2024-01-18 06:30 1.74 7.69 291 3.17 47.3 37.8 0.12 41.0
2024-01-18 06:00 1.64 7.69 290 3.13 47.3 37.8 0.25 45.0
2024-01-18 05:30 1.44 2.82 31 2.80 47.5 37.4 0.29 69.0
2024-01-18 05:00 1.25 2.78 49 2.64 47.5 36.5 0.37 69.0
2024-01-18 04:30 1.18 2.99 63 2.60 47.5 0.54 68.0
2024-01-18 04:00 1.08 3.13 60 2.66 47.5 36.1 0.62 61.0
2024-01-18 03:30 1.15 3.03 41 2.74 47.5 36.7 0.62 52.0
2024-01-18 03:00 1.12 3.08 39 2.72 47.5 36.7 0.39 33.0
2024-01-18 02:30 1.18 3.45 67 2.64 47.5 36.7 0.14 42.0
2024-01-18 02:00 1.21 3.64 56 2.37 47.5 37.0 0.27 264.0
2024-01-18 01:30 1.12 3.33 92 2.55 47.5 36.3 0.87 234.0
2024-01-18 01:00 0.98 3.13 104 2.75 47.5 35.6 1.17 211.0
2024-01-18 00:30 1.25 3.23 92 2.80 47.5 36.3 0.45 118.0
2024-01-18 00:00 1.28 2.70 84 2.61 47.5 37.4 0.25 139.0
2024-01-17 23:30 1.31 2.13 41 2.37 47.5 37.9 0.41 226.0
2024-01-17 23:00 1.15 4.44 278 2.38 47.5 39.0 0.56 246.0
2024-01-17 22:30 1.05 4.26 287 2.53 47.5 40.6 0.95 250.0
2024-01-17 22:00 1.05 3.28 277 2.75 47.5 41.4 1.63 254.0
2024-01-17 21:30 1.02 3.39 283 2.94 47.5 40.3 2.18 253.0
2024-01-17 21:00 0.85 2.94 287 2.60 47.3 42.1 1.22 259.0
2024-01-17 20:30 0.89 2.63 305 2.50 47.1 41.2 1.05 271.0
2024-01-17 20:00 0.85 2.70 60 2.52 46.9 0.84 252.0
2024-01-17 19:30 0.85 2.82 65 2.53 47.1 0.45 244.0
2024-01-17 19:00 0.98 12.50 291 2.67 47.1 34.9 0.25 233.0
2024-01-17 18:30 1.18 13.33 310 2.92 45.7 33.6 0.10 126.0
2024-01-17 18:00 1.35 13.33 291 2.98 46.4 32.4 0.23 90.0
2024-01-17 17:30 1.64 3.77 96 3.12 46.9 32.7 0.64 111.0
2024-01-17 17:00 1.67 3.70 96 3.10 47.1 33.8 0.95 98.0
2024-01-17 16:30 1.71 3.77 83 3.05 47.1 36.1 1.24 113.0
2024-01-17 16:00 1.64 3.51 48 3.17 47.1 36.5 1.56 105.0
2024-01-17 15:30 1.64 3.92 54 3.26 47.1 36.5 1.54 101.0
2024-01-17 15:00 1.48 3.85 40 3.45 47.1 36.3 2.12 87.0
2024-01-17 14:30 1.18 11.11 290 3.74 47.5 35.6 1.21 62.0
2024-01-17 14:00 1.02 3.85 33 3.66 47.5 1.11 68.0
2024-01-17 13:30 1.02 12.50 304 3.84 47.5 35.2 1.01 81.0
2024-01-17 13:00 1.18 12.50 301 3.82 47.3 0.82 82.0
2024-01-17 12:30 1.51 3.92 31 3.50 47.3 34.7 0.62 76.0
2024-01-17 12:00 1.51 11.76 298 3.68 47.3 0.43 70.0
2024-01-17 11:30 1.44 12.50 299 3.56 47.3 0.06 199.0
2024-01-17 11:00 1.31 3.64 13 3.03 47.3 34.3 0.29 230.0
2024-01-17 10:30 1.02 3.57 2 2.92 47.5 34.0 0.68 232.0
2024-01-17 10:00 0.92 11.76 287 2.87 47.3 0.64 239.0
2024-01-17 09:30 1.08 3.39 15 2.88 47.3 0.80 254.0
2024-01-17 09:00 1.02 12.50 317 2.88 47.3 1.17 269.0
2024-01-17 08:30 0.82 12.50 300 2.36 47.3 34.5 1.52 271.0
2024-01-17 08:00 0.82 14.29 300 2.40 47.5 35.6 1.44 276.0
2024-01-17 07:30 0.85 13.33 329 2.11 47.3 35.6 1.11 276.0
2024-01-17 07:00 0.95 2.35 33 2.15 47.1 34.9 0.95 281.0
2024-01-17 06:30 1.02 2.30 41 2.12 46.8 35.4 0.82 293.0
2024-01-17 06:00 1.05 2.35 35 2.20 46.8 36.1 0.86 289.0
2024-01-17 05:30 0.98 2.74 16 2.15 47.3 35.6 0.84 279.0
2024-01-17 05:00 0.89 13.33 300 2.16 47.3 36.0 0.45 303.0
2024-01-17 04:30 0.92 13.33 304 2.16 47.3 36.3 0.12 331.0
2024-01-17 04:00 0.95 14.29 311 2.24 47.3 36.5 0.17 343.0
2024-01-17 03:30 0.98 13.33 318 2.59 47.3 36.1 0.16 298.0
2024-01-17 03:00 1.02 2.90 46 2.83 47.3 36.5 0.35 224.0
2024-01-17 02:30 0.98 11.11 292 3.32 47.3 35.8 0.27 174.0
2024-01-17 02:00 0.92 2.94 44 2.80 47.5 36.0 0.74 75.0
2024-01-17 01:30 0.98 2.86 28 2.69 47.7 36.5 0.70 76.0
2024-01-17 01:00 1.08 11.76 306 2.87 47.5 36.1 0.35 68.0
2024-01-17 00:30 1.18 14.29 320 2.66 47.5 36.7 0.31 284.0
2024-01-17 00:00 1.12 14.29 291 2.41 47.3 36.7 0.89 241.0
2024-01-16 23:30 0.92 11.76 311 3.06 47.3 36.5 1.59 225.0
2024-01-16 23:00 0.85 11.76 300 3.31 47.5 36.0 1.48 230.0
2024-01-16 22:30 0.92 14.29 307 3.20 47.5 35.8 1.96 233.0
2024-01-16 22:00 0.95 6.90 289 3.18 47.3 35.4 2.29 237.0
2024-01-16 21:30 1.21 13.33 295 4.40 47.7 35.8 2.04 243.0
2024-01-16 21:00 1.08 7.14 304 2.94 47.3 35.2 2.02 242.0
2024-01-16 20:30 1.12 15.38 303 3.16 47.3 35.1 2.27 247.0
2024-01-16 20:00 1.12 13.33 293 3.15 47.5 35.1 2.33 255.0
2024-01-16 19:30 1.15 13.33 288 3.20 47.5 35.1 1.90 256.0
2024-01-16 19:00 1.21 13.33 289 3.03 47.3 34.9 1.40 267.0
2024-01-16 18:30 1.35 14.29 283 2.74 47.3 34.2 1.19 266.0
2024-01-16 18:00 1.31 13.33 298 2.62 46.9 34.3 0.39 150.0
2024-01-16 17:30 1.31 14.29 298 3.04 47.1 34.0 0.66 126.0
2024-01-16 17:00 1.25 14.29 292 3.39 47.1 33.8 0.95 116.0
2024-01-16 16:30 1.31 15.38 305 3.64 47.1 33.6 1.13 118.0
2024-01-16 16:00 1.18 4.00 75 3.44 46.9 33.6 1.67 112.0
2024-01-16 15:30 1.12 3.70 43 3.62 47.3 34.0 1.90 107.0
2024-01-16 15:00 0.95 14.29 295 3.79 47.3 34.0 2.39 102.0
2024-01-16 14:30 0.98 14.29 305 4.36 47.3 34.2 2.51 99.0
2024-01-16 14:00 1.12 13.33 289 4.45 47.3 34.0 1.32 66.0
2024-01-16 13:30 1.25 14.29 305 5.99 47.3 33.3 1.17 64.0
2024-01-16 13:00 1.77 14.29 305 8.13 47.3 33.3 1.01 71.0
2024-01-16 12:30 1.64 11.76 294 6.64 47.3 33.8 0.60 106.0
2024-01-16 12:00 1.44 11.76 291 5.78 47.3 32.7 0.45 133.0
2024-01-16 11:30 1.35 11.76 295 4.93 47.5 33.1 0.25 132.0
2024-01-16 11:00 1.64 13.33 305 5.44 47.5 33.1 0.31 123.0
2024-01-16 10:30 1.64 13.33 299 5.06 47.5 34.2 0.25 163.0
2024-01-16 10:00 1.35 12.50 302 4.28 47.5 34.2 0.51 200.0
2024-01-16 09:30 1.44 11.76 301 5.18 47.7 34.2 0.33 229.0
2024-01-16 09:00 1.54 12.50 300 5.01 47.7 34.9 0.68 249.0
2024-01-16 08:30 1.31 12.50 304 5.43 47.7 34.0 1.26 248.0
2024-01-16 08:00 1.12 11.76 300 5.28 47.7 33.8 1.67 247.0
2024-01-16 07:30 1.12 11.76 301 3.97 47.5 34.0 1.30 261.0
2024-01-16 07:00 1.21 15.38 295 4.37 47.5 34.5 1.98 257.0
2024-01-16 06:30 1.31 15.38 310 4.99 47.5 34.5 2.08 265.0
2024-01-16 06:00 1.28 14.29 309 4.17 47.5 34.9 2.00 275.0
2024-01-16 05:30 1.35 14.29 305 3.91 47.3 34.5 2.04 275.0
2024-01-16 05:00 1.38 16.67 303 3.23 47.1 34.5 1.65 273.0
2024-01-16 04:30 1.35 15.38 318 2.96 46.6 34.7 0.89 294.0
2024-01-16 04:00 1.44 13.33 306 3.48 47.5 34.5 0.86 283.0
2024-01-16 03:30 1.51 14.29 301 3.49 47.5 34.5 0.56 265.0
2024-01-16 03:00 1.64 15.38 309 4.03 47.3 35.1 0.04 262.0
2024-01-16 02:30 1.67 15.38 313 4.13 47.5 34.7 0.04 276.0
2024-01-16 02:00 1.84 15.38 300 4.19 47.3 35.1 0.31 308.0
2024-01-16 01:30 1.74 14.29 303 4.21 47.3 36.0 0.27 299.0
2024-01-16 01:00 1.90 14.29 307 4.29 47.3 35.1 0.37 278.0
2024-01-16 00:30 1.80 14.29 302 3.94 47.3 35.4 0.43 253.0
2024-01-16 00:00 1.71 15.38 313 3.44 47.3 36.0 0.45 242.0
2024-01-15 23:30 1.87 15.38 301 3.32 47.5 35.8 0.62 255.0
2024-01-15 23:00 1.51 14.29 306 3.42 47.5 34.7 1.13 242.0
2024-01-15 22:30 1.25 15.38 304 4.09 47.3 34.7 1.61 235.0
2024-01-15 22:00 1.08 16.67 306 3.39 47.3 34.5 1.92 234.0
2024-01-15 21:30 0.98 15.38 307 3.37 47.3 34.7 2.64 238.0
2024-01-15 21:00 0.89 15.38 310 3.84 47.5 34.9 2.78 241.0
2024-01-15 20:30 1.12 2.53 38 2.29 47.5 34.7 2.04 246.0
2024-01-15 20:00 1.05 16.67 304 3.14 47.5 35.1 1.89 242.0
2024-01-15 19:30 1.08 16.67 309 3.61 47.5 34.7 1.96 254.0
2024-01-15 19:00 1.25 13.33 279 3.63 47.5 34.2 1.87 256.0
2024-01-15 18:30 1.48 3.03 29 2.85 47.5 33.8 1.40 256.0
2024-01-15 18:00 1.64 11.11 313 2.58 47.5 33.6 0.89 257.0
2024-01-15 17:30 1.71 10.53 303 2.96 47.5 33.3 0.62 248.0
2024-01-15 17:00 1.87 3.51 58 2.96 47.5 32.7 0.29 208.0
2024-01-15 16:30 2.00 12.50 300 3.34 47.5 33.1 0.43 161.0
2024-01-15 16:00 1.90 11.11 298 3.83 47.5 32.4 0.70 123.0
2024-01-15 15:30 1.67 11.11 291 4.50 47.5 32.5 1.40 108.0
2024-01-15 15:00 1.77 12.50 292 5.28 47.5 32.5 1.71 108.0
2024-01-15 14:30 2.23 11.76 299 6.88 47.7 32.5 1.98 102.0
2024-01-15 14:00 2.03 10.53 298 6.38 47.3 32.4 2.53 101.0
2024-01-15 13:30 1.97 10.53 293 6.38 47.5 32.7 2.00 88.0
2024-01-15 13:00 2.07 11.11 298 7.41 47.5 32.7 1.40 71.0
2024-01-15 12:30 1.87 10.00 300 6.56 47.7 32.5 1.19 87.0
2024-01-15 12:00 1.94 10.53 298 6.29 47.7 32.7 1.17 89.0
2024-01-15 11:30 2.00 11.11 298 6.53 47.7 32.5 1.36 84.0
2024-01-15 11:00 2.00 11.76 302 7.33 47.7 32.9 1.21 81.0
2024-01-15 10:30 1.61 10.53 295 6.00 47.7 32.9 0.74 71.0
2024-01-15 10:00 1.48 11.11 290 5.09 47.7 32.4 0.45 96.0
2024-01-15 09:30 1.51 11.11 301 3.97 47.7 33.1 0.37 133.0
2024-01-15 09:00 1.28 11.11 296 3.51 47.7 33.3 0.21 139.0
2024-01-15 08:30 1.48 11.76 295 3.38 47.7 33.6 0.14 159.0
2024-01-15 08:00 1.38 10.00 290 3.10 47.7 33.3 0.17 257.0
2024-01-15 07:30 1.44 11.76 298 3.14 47.7 33.6 0.37 219.0
2024-01-15 07:00 1.25 12.50 291 3.44 47.7 33.6 0.82 237.0
2024-01-15 06:30 1.51 13.33 307 4.03 47.7 33.6 0.97 248.0
2024-01-15 06:00 1.57 12.50 311 3.90 47.7 33.4 1.17 270.0
2024-01-15 05:30 1.61 12.50 305 3.94 47.7 33.3 1.40 278.0
2024-01-15 05:00 1.41 12.50 307 4.09 47.5 33.1 1.59 282.0
2024-01-15 04:30 1.51 11.11 287 3.87 47.5 33.1 1.94 278.0
2024-01-15 04:00 1.57 11.76 298 4.49 47.5 32.5 1.83 268.0
2024-01-15 03:30 1.74 11.76 297 5.42 46.4 32.9 1.44 265.0
2024-01-15 03:00 1.77 11.76 298 5.04 47.5 33.3 0.80 278.0
2024-01-15 02:30 1.87 12.50 306 5.19 47.5 33.4 0.49 281.0
2024-01-15 02:00 2.03 11.76 303 5.66 47.5 33.3 0.33 321.0
2024-01-15 01:30 2.49 11.76 304 7.19 47.5 33.3 0.27 354.0
2024-01-15 01:00 2.66 12.50 306 8.45 47.5 33.1 0.35 11.0
2024-01-15 00:30 2.95 12.50 305 8.89 47.5 32.7 0.43 348.0
2024-01-15 00:00 2.72 11.11 307 8.56 47.5 32.5 0.43 317.0
2024-01-14 23:30 2.49 11.11 305 7.97 47.5 32.7 0.41 307.0
2024-01-14 23:00 2.62 11.76 308 8.71 47.5 32.4 0.47 258.0
2024-01-14 22:30 1.94 11.76 308 7.39 47.3 32.2 1.32 235.0
2024-01-14 22:00 1.15 12.50 303 4.89 47.3 32.4 1.75 237.0
2024-01-14 21:30 1.08 13.33 300 4.79 47.3 32.4 2.08 237.0
2024-01-14 21:00 1.48 13.33 298 6.79 47.5 32.5 2.45 239.0
2024-01-14 20:30 1.31 14.29 293 3.78 47.7 32.4 1.61 264.0
2024-01-14 20:00 1.25 13.33 304 3.97 47.5 32.4 1.11 241.0
2024-01-14 19:30 1.21 14.29 308 4.29 47.5 32.2 1.13 248.0
2024-01-14 19:00 1.31 14.29 307 5.36 47.3 31.8 1.79 253.0
2024-01-14 18:30 1.21 13.33 312 5.73 47.3 31.5 1.52 255.0
2024-01-14 18:00 1.57 14.29 306 6.72 47.3 30.7 1.30 250.0
2024-01-14 17:30 1.71 14.29 307 6.82 47.3 30.6 1.21 245.0
2024-01-14 17:00 1.54 14.29 304 5.42 47.3 30.6 0.89 236.0
2024-01-14 16:30 1.41 14.29 303 3.95 47.3 30.9 0.72 207.0
2024-01-14 16:00 1.51 14.29 305 4.85 47.3 30.7 0.78 174.0
2024-01-14 15:30 1.54 14.29 297 6.59 47.3 30.4 1.07 149.0
2024-01-14 15:00 1.44 14.29 298 6.05 47.3 30.0 1.42 127.0
2024-01-14 14:30 1.57 14.29 294 6.99 47.5 30.2 1.85 113.0
2024-01-14 14:00 1.48 14.29 311 7.38 47.5 29.3 2.25 93.0
2024-01-14 13:30 1.51 14.29 303 6.85 47.1 29.3 2.06 89.0
2024-01-14 13:00 1.61 14.29 302 8.22 47.3 29.3 1.65 86.0
2024-01-14 12:30 1.38 14.29 300 7.23 47.3 28.9 1.22 62.0
2024-01-14 12:00 2.43 13.33 305 11.10 47.3 29.1 0.97 76.0
2024-01-14 11:30 2.20 13.33 308 11.40 47.3 29.1 0.89 98.0
2024-01-14 11:00 2.17 14.29 309 11.28 47.3 28.8 0.80 98.0
2024-01-14 10:30 1.67 14.29 303 9.50 47.5 29.1 0.93 89.0
2024-01-14 10:00 1.67 13.33 302 8.22 47.5 29.1 0.64 79.0
2024-01-14 09:30 1.57 13.33 303 6.82 47.3 28.6 0.78 71.0
2024-01-14 09:00 1.71 14.29 307 5.47 47.7 28.9 0.39 96.0
2024-01-14 08:30 1.64 14.29 307 4.40 47.7 28.6 0.33 203.0
2024-01-14 08:00 1.31 14.29 302 3.72 46.9 29.1 0.78 224.0
2024-01-14 07:30 1.21 14.29 301 3.82 47.7 28.6 0.62 213.0
2024-01-14 07:00 1.21 15.38 302 3.19 47.5 28.6 0.82 233.0
2024-01-14 06:30 1.31 15.38 302 3.75 47.7 28.2 0.80 240.0
2024-01-14 06:00 1.25 15.38 301 3.59 47.7 28.2 1.17 240.0
2024-01-14 05:30 1.25 15.38 302 3.78 47.7 28.0 1.65 252.0
2024-01-14 05:00 1.18 15.38 301 3.76 47.7 27.5 1.85 260.0
2024-01-14 04:30 1.44 15.38 313 5.18 47.7 27.1 2.29 265.0
2024-01-14 04:00 1.15 15.38 308 3.17 47.7 27.1 1.98 278.0
2024-01-14 03:30 1.15 15.38 312 2.76 47.5 27.1 2.20 269.0
2024-01-14 03:00 1.08 16.67 310 3.29 47.3 25.9 2.82 266.0
2024-01-14 02:30 1.31 15.38 306 3.54 46.6 25.7 1.77 271.0
2024-01-14 02:00 1.80 15.38 321 2.58 47.3 25.3 1.24 285.0
2024-01-14 01:30 2.00 3.77 35 2.80 47.5 25.0 0.89 291.0
2024-01-14 01:00 2.00 14.29 309 2.92 47.5 25.2 0.93 307.0
2024-01-14 00:30 2.23 3.57 47 3.13 47.5 25.2 0.93 310.0
2024-01-14 00:00 2.30 15.38 308 3.16 47.5 27.1 0.74 321.0
2024-01-13 23:30 2.36 15.38 317 3.25 47.5 26.4 0.60 296.0
2024-01-13 23:00 2.46 3.77 53 3.04 47.5 27.3 0.66 265.0
2024-01-13 22:30 2.17 3.77 59 2.80 47.5 26.2 1.01 248.0
2024-01-13 22:00 2.13 3.77 48 2.67 47.5 26.1 1.42 243.0
2024-01-13 21:30 2.17 3.51 29 2.62 47.7 26.2 0.12 82.0
2024-01-13 21:00 2.26 3.57 28 2.81 47.7 25.5 0.10 332.0
2024-01-13 20:30 2.30 3.45 36 2.79 47.7 24.1 0.14 299.0
2024-01-13 20:00 2.20 3.33 36 2.75 47.7 24.3 0.45 268.0
2024-01-13 19:30 1.94 3.57 27 2.57 47.7 23.5 1.22 252.0
2024-01-13 19:00 1.80 15.38 323 2.62 47.5 23.7 1.71 255.0
2024-01-13 18:30 1.97 3.85 35 2.53 47.1 23.0 1.32 268.0
2024-01-13 18:00 2.07 3.77 38 2.76 47.7 22.6 1.24 260.0
2024-01-13 17:30 2.17 4.00 41 2.85 47.7 21.7 1.21 271.0
2024-01-13 17:00 2.43 4.08 38 3.07 47.7 20.7 1.07 259.0
2024-01-13 16:30 2.43 4.26 46 3.15 47.5 21.0 0.70 273.0
2024-01-13 16:00 2.72 4.55 50 3.22 47.5 21.0 0.29 252.0
2024-01-13 15:30 2.69 4.88 56 3.43 47.5 20.8 0.17 137.0
2024-01-13 15:00 2.43 4.88 70 3.54 47.5 20.5 0.45 135.0
2024-01-13 14:30 2.46 5.13 75 3.80 47.1 21.2 1.28 115.0
2024-01-13 14:00 2.56 5.26 66 4.13 47.1 21.7 1.63 110.0
2024-01-13 13:30 2.40 5.71 88 4.51 46.9 22.6 2.24 108.0
2024-01-13 13:00 2.07 5.41 68 4.64 46.9 21.9 2.57 107.0
2024-01-13 12:30 1.67 6.06 76 4.67 47.3 22.1 2.45 107.0
2024-01-13 12:00 1.41 5.26 64 4.75 47.3 21.6 2.70 102.0
2024-01-13 11:30 1.18 6.06 72 4.56 47.5 21.2 2.43 96.0
2024-01-13 11:00 1.31 5.88 67 4.34 47.5 21.0 2.33 87.0
2024-01-13 10:30 1.44 5.41 68 4.22 47.5 21.4 1.87 88.0
2024-01-13 10:00 1.61 4.26 42 3.87 47.5 21.2 1.57 92.0
2024-01-13 09:30 1.54 3.92 33 3.58 47.5 21.7 1.34 81.0
2024-01-13 09:00 1.71 3.70 40 3.37 47.5 21.2 1.03 76.0
2024-01-13 08:30 1.80 3.70 40 3.07 47.5 21.4 0.74 75.0
2024-01-13 08:00 1.64 3.03 46 2.93 47.5 21.0 0.43 110.0
2024-01-13 07:30 1.54 2.99 67 3.04 47.5 21.6 0.78 148.0
2024-01-13 07:00 1.51 11.11 287 3.02 47.5 21.2 0.80 141.0
2024-01-13 06:30 1.35 2.70 57 2.78 47.5 20.1 0.68 156.0
2024-01-13 06:00 1.15 2.50 64 2.73 47.5 20.3 0.49 136.0
2024-01-13 05:30 1.25 2.17 75 2.69 47.5 19.8 0.16 171.0
2024-01-13 05:00 1.15 2.30 56 2.49 47.5 20.1 0.35 241.0
2024-01-13 04:30 1.15 11.11 295 2.62 47.7 19.8 0.74 252.0
2024-01-13 04:00 1.21 12.50 292 2.92 47.7 19.0 1.19 260.0
2024-01-13 03:30 1.41 12.50 287 3.52 47.5 18.9 1.24 271.0
2024-01-13 03:00 1.64 3.28 13 3.29 47.3 18.9 1.56 282.0
2024-01-13 02:30 1.84 3.77 24 3.18 47.3 18.9 1.07 288.0
2024-01-13 02:00 2.49 4.00 25 3.50 47.3 19.2 1.17 279.0
2024-01-13 01:30 2.99 4.55 29 3.58 46.8 18.7 0.87 288.0
2024-01-13 01:00 3.48 4.65 34 3.77 46.6 18.1 0.87 295.0
2024-01-13 00:30 3.48 4.55 45 3.78 47.5 18.7 1.05 277.0
2024-01-13 00:00 3.28 5.00 48 3.67 47.7 19.0 0.66 276.0
2024-01-12 23:30 3.38 4.88 51 3.82 47.7 19.4 0.52 239.0
2024-01-12 23:00 3.64 5.00 55 3.98 47.7 19.6 0.49 217.0
2024-01-12 22:30 3.15 4.76 52 3.76 47.7 20.1 0.58 212.0
2024-01-12 22:00 3.02 4.76 51 3.63 47.7 19.2 0.49 222.0
2024-01-12 21:30 2.85 4.76 44 3.55 47.7 18.5 0.51 235.0
2024-01-12 21:00 3.15 4.76 52 3.70 47.7 19.4 0.31 233.0
2024-01-12 20:30 3.48 4.65 44 3.66 47.7 19.4 0.33 315.0
2024-01-12 20:00 3.44 4.76 48 3.70 47.7 19.2 0.56 226.0
2024-01-12 19:30 3.28 4.76 53 3.63 47.7 18.1 0.84 237.0
2024-01-12 19:00 3.51 4.88 60 3.63 47.7 18.0 0.41 257.0
2024-01-12 18:30 3.97 4.76 61 3.91 47.5 18.3 0.68 279.0
2024-01-12 18:00 4.33 5.41 57 4.09 47.5 18.3 0.91 278.0
2024-01-12 17:30 4.46 5.26 52 4.09 47.5 19.0 0.66 269.0
2024-01-12 17:00 4.36 5.13 57 3.92 47.5 18.9 0.58 253.0
2024-01-12 16:30 4.17 4.76 57 3.76 47.7 19.9 0.54 237.0
2024-01-12 16:00 4.04 4.88 63 3.76 47.7 19.9 0.29 176.0
2024-01-12 15:30 4.30 4.88 61 4.09 47.7 20.3 0.35 137.0
2024-01-12 15:00 4.46 5.00 67 4.20 47.8 20.1 0.62 125.0
2024-01-12 14:30 4.53 5.41 76 4.36 47.8 19.6 0.95 118.0
2024-01-12 14:00 4.63 5.88 72 4.63 47.8 20.7 1.34 106.0
2024-01-12 13:30 4.33 5.56 68 4.72 47.8 21.4 1.69 106.0
2024-01-12 13:00 4.43 6.06 79 5.03 47.7 2.25 102.0
2024-01-12 12:30 4.04 6.67 85 5.38 47.7 2.62 102.0
2024-01-12 12:00 4.04 6.25 79 5.67 47.7 3.05 99.0
2024-01-12 11:30 4.07 10.00 296 5.90 47.8 3.01 97.0
2024-01-12 11:00 3.84 8.70 290 5.52 47.7 23.0 2.78 97.0
2024-01-12 10:30 3.74 5.88 53 5.59 47.7 22.5 2.08 95.0
2024-01-12 10:00 3.94 5.56 45 5.43 47.8 22.8 2.25 89.0
2024-01-12 09:30 5.02 6.06 39 5.75 47.7 23.7 1.59 89.0
2024-01-12 09:00 6.07 9.52 289 6.37 47.8 23.4 1.38 84.0
2024-01-12 08:30 5.54 9.09 302 5.91 47.8 24.4 1.19 88.0
2024-01-12 08:00 6.07 10.00 293 5.95 47.8 24.6 0.82 103.0
2024-01-12 07:30 6.00 11.11 303 6.09 47.8 25.0 0.80 118.0
2024-01-12 07:00 5.15 9.52 305 6.10 47.8 25.0 1.28 119.0
2024-01-12 06:30 4.13 10.53 291 5.41 47.8 0.86 124.0
2024-01-12 06:00 4.43 11.11 298 6.09 47.8 0.64 154.0
2024-01-12 05:30 3.35 11.76 306 4.68 47.7 26.2 0.56 156.0
2024-01-12 05:00 3.28 10.00 314 4.59 47.8 24.6 0.31 160.0
2024-01-12 04:30 3.97 8.33 308 4.50 47.8 24.4 0.17 218.0
2024-01-12 04:00 3.61 3.70 33 4.21 47.8 24.8 0.10 272.0
2024-01-12 03:30 3.67 7.69 302 4.28 47.8 25.0 0.41 296.0
2024-01-12 03:00 3.74 7.41 284 4.28 47.8 25.2 0.97 274.0
2024-01-12 02:30 4.63 7.14 296 4.69 47.8 26.2 1.32 279.0
2024-01-12 02:00 5.84 8.33 302 5.38 48.0 27.5 1.71 269.0
2024-01-12 01:30 6.00 9.52 300 5.47 48.0 28.9 1.48 265.0
2024-01-12 01:00 5.97 9.09 300 4.83 48.0 31.6 1.17 255.0
2024-01-12 00:30 6.33 7.14 294 4.67 48.2 32.9 0.82 238.0
2024-01-12 00:00 5.41 6.45 295 4.85 48.2 41.9 0.10 265.0
2024-01-11 23:30 4.95 6.90 296 4.53 48.2 42.3 0.29 124.0
2024-01-11 23:00 5.02 5.88 299 4.65 48.2 43.3 0.33 125.0
2024-01-11 22:30 5.68 5.26 303 4.66 48.2 43.7 0.43 109.0
2024-01-11 22:00 5.58 5.71 293 4.69 48.2 43.9 0.37 113.0
2024-01-11 21:30 5.54 5.71 304 4.54 48.2 43.7 0.54 124.0
2024-01-11 21:00 5.97 6.25 300 4.68 48.2 43.9 0.58 115.0
2024-01-11 20:30 5.97 5.13 310 4.58 48.2 44.2 0.64 116.0
2024-01-11 20:00 5.61 5.41 302 4.59 48.2 44.1 0.29 93.0
2024-01-11 19:30 4.56 4.88 310 4.30 48.2 43.9 0.27 87.0
2024-01-11 19:00 4.00 5.41 293 4.25 48.2 44.1 0.45 139.0
2024-01-11 18:30 3.97 4.76 297 4.45 48.2 43.3 0.35 140.0
2024-01-11 18:00 4.23 11.76 303 4.66 48.2 43.7 0.19 151.0
2024-01-11 17:30 4.13 11.11 303 4.89 48.2 44.1 0.29 233.0
2024-01-11 17:00 3.38 10.53 303 4.32 48.2 43.7 0.39 245.0
2024-01-11 16:30 3.54 12.50 303 4.53 48.2 43.9 0.45 172.0
2024-01-11 16:00 3.64 11.76 304 4.84 48.2 43.5 0.47 129.0
2024-01-11 15:30 3.77 12.50 309 5.22 48.2 43.5 0.39 116.0
2024-01-11 15:00 4.07 11.11 310 5.36 48.2 43.2 0.49 115.0
2024-01-11 14:30 3.97 11.11 301 5.75 48.2 42.6 0.84 110.0
2024-01-11 14:00 3.25 11.11 309 5.40 48.2 42.3 1.09 106.0
2024-01-11 13:30 3.02 9.52 307 4.94 48.2 42.4 1.46 108.0
2024-01-11 13:00 3.28 10.00 299 4.83 48.2 42.4 1.92 105.0
2024-01-11 12:30 3.87 9.09 298 5.29
2024-01-11 12:00 3.64 8.33 301 5.21 48.2 42.6 2.68 96.0
2024-01-11 11:30 2.59 11.76 303 4.57 48.2 43.0 2.70 94.0
2024-01-11 11:00 2.46 4.65 320 4.70 48.2 3.34 96.0
2024-01-11 10:30 2.89 11.76 300 5.40 48.2 43.9 3.32 94.0
2024-01-11 10:00 3.08 8.00 295 5.97 48.2 3.48 91.0
2024-01-11 09:30 2.85 8.70 293 6.05 48.2 44.4 3.17 93.0
2024-01-11 09:00 3.18 6.90 287 4.76 48.2 44.6 2.27 94.0
2024-01-11 08:30 4.23 8.00 277 5.11 48.2 1.75 96.0
2024-01-11 08:00 4.92 10.00 287 6.89 48.2 2.02 95.0
2024-01-11 07:30 4.63 9.52 283 7.58 48.2 45.0 1.65 97.0
2024-01-11 07:00 3.87 11.11 288 7.55 48.2 44.8 1.09 103.0
2024-01-11 06:30 3.51 10.00 297 7.84 48.2 42.4 0.91 126.0
2024-01-11 06:00 3.05 11.11 298 7.58 48.2 43.0 0.86 100.0
2024-01-11 05:30 2.59 12.50 307 7.45 48.2 41.2 0.27 148.0
2024-01-11 05:00 2.40 9.09 312 8.07 48.2 41.2 0.29 177.0
2024-01-11 04:30 2.17 9.52 296 8.20 48.2 41.0 0.27 179.0
2024-01-11 04:00 1.87 11.11 293 8.21 48.2 40.5 0.23 157.0
2024-01-11 03:30 2.92 11.76 288 10.05 48.2 39.9 0.10 156.0
2024-01-11 03:00 3.35 11.76 294 10.23 48.2 40.3 0.06 138.0
2024-01-11 02:30 2.36 10.53 295 8.82 48.2 41.2 0.08 236.0
2024-01-11 02:00 1.97 11.76 286 8.19 48.2 40.6 0.12 264.0
2024-01-11 01:30 2.26 12.50 296 9.14 47.7 41.7 0.17 260.0
2024-01-11 01:00 3.18 12.50 297 10.30 47.7 41.0 0.17 272.0
2024-01-11 00:30 2.92 12.50 299 9.40 47.5 41.5 0.21 274.0
2024-01-11 00:00 2.79 12.50 301 9.28 46.4 41.9 0.23 238.0
2024-01-10 23:30 2.99 13.33 302 9.51 45.9 42.4 0.16 311.0
2024-01-10 23:00 3.35 12.50 302 9.43 46.2 42.3 0.10 4.0
2024-01-10 22:30 3.28 11.11 299 9.21 47.1 42.3 0.08 20.0
2024-01-10 22:00 3.35 11.11 299 8.97 47.1 42.4 0.16 32.0
2024-01-10 21:30 3.25 11.11 300 8.96 47.5 41.9 0.10 345.0
2024-01-10 21:00 3.25 11.76 301 8.60 48.2 41.2 0.06 25.0
2024-01-10 20:30 3.31 12.50 300 8.59 48.0 0.14 137.0
2024-01-10 20:00 3.38 11.11 301 8.31 47.5 0.21 123.0
2024-01-10 19:30 3.74 11.76 303 8.16 47.3 39.2 0.23 124.0
2024-01-10 19:00 3.61 11.76 302 7.96 47.7 39.0 0.19 75.0
2024-01-10 18:30 3.90 13.33 303 8.15 47.8 39.2 0.16 118.0
2024-01-10 18:00 4.27 12.50 302 8.59 46.6 39.4 0.16 102.0
2024-01-10 17:30 4.23 13.33 301 8.75 46.8 41.2 0.08 80.0
2024-01-10 17:00 4.40 12.50 297 9.07 46.6 41.4 0.02 231.0
2024-01-10 16:30 4.59 12.50 297 9.20 46.6 42.6 0.04 96.0
2024-01-10 16:00 4.20 10.53 300 8.57 48.2 43.5 0.17 119.0
2024-01-10 15:30 4.72 13.33 302 9.07 48.4 43.7 0.25 121.0
2024-01-10 15:00 3.81 11.11 300 7.65 48.2 43.9 0.27 121.0
2024-01-10 14:30 3.77 11.11 304 7.29 48.4 43.7 0.31 111.0
2024-01-10 14:00 3.61 12.50 304 7.30 48.2 43.7 0.41 113.0
2024-01-10 13:30 2.72 12.50 302 5.93 48.4 43.5 0.25 88.0
2024-01-10 13:00 2.56 13.33 305 4.69 48.4 44.1 0.33 75.0
2024-01-10 12:30 2.95 11.76 301 5.85 48.4 43.7 0.51 79.0
2024-01-10 12:00 3.22 11.11 298 6.27 48.6 0.62 70.0
2024-01-10 11:30 3.18 10.53 293 6.25 48.4 1.03 73.0
2024-01-10 11:00 3.28 10.53 301 6.69 48.4 1.65 83.0
2024-01-10 10:30 3.90 12.50 295 7.36
2024-01-10 10:00 5.31 11.76 294 9.08 48.4 3.34 97.0
2024-01-10 09:30 4.76 11.76 295 8.46 48.2 3.60 97.0
2024-01-10 09:00 3.94 10.53 291 8.25 48.2 39.7 3.44 95.0
2024-01-10 08:30 4.95 10.53 284 7.66 48.2 1.65 79.0
2024-01-10 08:00 7.02 9.09 298 7.08 48.2 1.59 85.0
2024-01-10 07:30 8.63 11.11 302 8.11 48.2 39.0 1.40 73.0
2024-01-10 07:00 7.81 12.50 303 7.72 48.2 37.8 1.13 91.0
2024-01-10 06:30 8.01 10.00 287 7.49 48.4 38.5 0.86 89.0
2024-01-10 06:00 8.07 9.09 285 7.39 48.4 0.49 87.0
2024-01-10 05:30 9.71 10.00 283 8.16 48.4 0.51 173.0
2024-01-10 05:00 8.96 11.76 284 8.29 48.4 0.72 187.0
2024-01-10 04:30 7.94 10.53 275 8.30 48.4 1.05 206.0
2024-01-10 04:00 8.56 11.76 287 8.58 48.4 1.03 217.0
2024-01-10 03:30 10.01 11.11 287 9.12 48.4 40.3 0.86 223.0
2024-01-10 03:00 10.76 11.76 293 9.21 48.4 0.62 233.0
2024-01-10 02:30 10.66 12.50 292 9.34 48.4 43.3 0.78 238.0
2024-01-10 02:00 11.98 11.76 295 9.04 48.6 43.9 1.11 261.0
2024-01-10 01:30 10.10 10.00 297 8.36 48.4 0.70 273.0
2024-01-10 01:00 10.33 8.70 291 7.81 48.4 41.7 1.05 273.0
2024-01-10 00:30 8.46 11.11 287 7.40 48.4 0.80 264.0
2024-01-10 00:00 8.66 8.70 284 7.14 48.4 0.72 246.0
2024-01-09 23:30 8.86 11.11 290 7.76 48.6 0.37 238.0
2024-01-09 23:00 10.17 10.53 295 7.83 48.6 0.23 269.0
2024-01-09 22:30 10.50 11.76 296 7.90 48.6 0.23 326.0
2024-01-09 22:00 11.38 11.76 303 8.11 48.6 0.16 92.0
2024-01-09 21:30 11.48 10.53 299 8.12 48.6 0.19 177.0
2024-01-09 21:00 9.74 8.33 298 7.29 48.6 0.19 132.0
2024-01-09 20:30 9.35 10.53 301 6.90 48.6 0.37 146.0
2024-01-09 20:00 9.91 10.53 297 6.54 48.6 42.6 0.62 143.0
2024-01-09 19:30 9.19 9.52 298 6.58 48.6 0.78 131.0
2024-01-09 19:00 8.56 14.29 307 6.58 48.6 0.76 122.0
2024-01-09 18:30 8.66 14.29 310 6.52 48.6 0.91 108.0
2024-01-09 18:00 8.37 14.29 315 6.43 48.6 43.7 0.52 92.0
2024-01-09 17:30 8.46 13.33 307 6.84 48.6 44.2 0.02 126.0
2024-01-09 17:00 7.38 14.29 310 6.69 48.6 0.27 207.0
2024-01-09 16:30 6.56 14.29 306 6.23 48.6 0.47 244.0
2024-01-09 16:00 6.30 13.33 305 6.60 48.6 0.29 231.0
2024-01-09 15:30 6.30 13.33 304 6.81 48.6 0.37 235.0
2024-01-09 15:00 6.82 14.29 302 6.71 48.7 0.45 219.0
2024-01-09 14:30 5.48 13.33 302 6.46
2024-01-09 14:00 4.82 12.50 301 5.81 48.7 46.6 0.17 120.0
2024-01-09 13:30 4.49 12.50 302 5.51 48.7 0.43 102.0
2024-01-09 13:00 4.00 11.76 302 5.05 48.7 0.54 118.0
2024-01-09 12:30 3.84 11.76 309 4.72 48.7 0.80 113.0
2024-01-09 12:00 4.04 11.11 301 4.71 48.6 1.24 122.0
2024-01-09 11:30 3.77 9.09 303 5.00 48.6 1.34 106.0
2024-01-09 11:00 3.87 4.08 295 4.30 48.6 1.92 105.0
2024-01-09 10:30 3.58 4.00 296 4.09 48.6 2.41 110.0
2024-01-09 10:00 3.38 5.13 315 4.04 48.6 47.5 2.70 106.0
2024-01-09 09:30 2.40 3.85 294 3.53 48.6 2.80 100.0
2024-01-09 09:00 2.36 4.17 293 3.47 48.6 44.4 2.72 101.0
2024-01-09 08:30 2.53 4.08 285 4.13 48.6 47.3 2.33 90.0
2024-01-09 08:00 2.17 7.41 300 3.32 48.6 46.9 1.79 82.0
2024-01-09 07:30 2.40 11.76 309 3.24 48.6 1.36 70.0
2024-01-09 07:00 2.20 11.11 307 3.34 48.4 46.2 0.87 95.0
2024-01-09 06:30 1.57 10.53 297 5.46 48.6 41.9 0.76 108.0
2024-01-09 06:00 1.51 9.09 288 6.29 48.4 41.0 0.70 97.0
2024-01-09 05:30 1.51 9.09 295 6.81 48.2 41.0 0.58 103.0
2024-01-09 05:00 1.57 8.70 287 6.35 48.2 41.0 0.47 112.0
2024-01-09 04:30 1.71 9.52 284 6.16 48.6 41.0 0.12 65.0
2024-01-09 04:00 1.94 11.76 294 6.08 48.6 40.1 0.37 213.0
2024-01-09 03:30 1.64 11.76 287 4.99 48.6 40.6 0.91 228.0
2024-01-09 03:00 1.41 11.76 289 4.32 48.6 40.5 1.07 227.0
2024-01-09 02:30 1.35 13.33 290 4.62 48.6 0.99 241.0
2024-01-09 02:00 1.31 13.33 289 4.03 48.6 40.6 0.80 247.0
2024-01-09 01:30 1.35 12.50 287 3.77 48.6 40.5 0.62 258.0
2024-01-09 01:00 1.25 13.33 287 3.37 48.6 40.8 0.86 247.0
2024-01-09 00:30 1.28 4.65 25 3.32 48.6 41.7 0.72 263.0
2024-01-09 00:00 1.48 13.33 294 3.26 48.6 41.2 0.95 276.0
2024-01-08 23:30 1.90 5.00 52 3.72 48.6 1.09 268.0
2024-01-08 23:00 48.6 40.3 0.84 274.0
2024-01-08 22:30 2.13 4.88 63 4.00 48.2 40.1 0.64 301.0
2024-01-08 22:00 2.07 5.26 63 4.07 48.2 39.9 0.62 284.0
2024-01-08 21:30 2.07 4.88 65 4.13 48.2 39.9 0.74 264.0
2024-01-08 21:00 2.17 5.41 67 4.59 47.7 40.1 0.39 238.0
2024-01-08 20:30 2.17 5.26 66 4.63 47.3 39.7 0.17 258.0
2024-01-08 20:00 2.33 5.41 70 4.73 46.9 39.7 0.14 98.0
2024-01-08 19:30 2.26 4.65 68 4.52 46.6 39.2 0.16 124.0
2024-01-08 19:00 2.10 11.11 304 4.27 46.8 39.2 0.16 78.0
2024-01-08 18:30 2.20 11.11 304 4.61 48.0 39.0 0.17 55.0
2024-01-08 18:00 2.07 3.85 55 4.26 48.6 38.8 0.16 17.0
2024-01-08 17:30 1.97 11.11 307 4.32 48.6 38.5 0.10 4.0
2024-01-08 17:00 1.77 3.70 60 4.06 48.7 38.7 0.17 269.0
2024-01-08 16:30 1.71 11.76 307 4.35 48.7 38.3 0.17 251.0
2024-01-08 16:00 1.74 11.76 304 4.12 48.7 38.1 0.19 307.0
2024-01-08 15:30 1.64 11.76 307 3.86 48.9 38.5 0.19 314.0
2024-01-08 15:00 1.87 11.11 301 4.59 48.9 38.7 0.23 294.0
2024-01-08 14:30 1.71 12.50 301 4.38 48.7 38.8 0.12 277.0
2024-01-08 14:00 1.77 10.00 308 4.88 48.7 0.21 106.0
2024-01-08 13:30 1.97 12.50 302 6.31 48.7 0.21 98.0
2024-01-08 13:00 2.00 12.50 302 7.22 48.9 0.33 99.0
2024-01-08 12:30 1.90 11.76 302 7.62 48.7 0.35 93.0
2024-01-08 12:00 1.90 11.11 303 8.21 48.9 38.8 0.39 76.0
2024-01-08 11:30 2.00 11.76 303 8.77 48.7 39.4 0.74 112.0
2024-01-08 11:00 2.23 10.00 302 8.56 48.7 40.3 0.93 105.0
2024-01-08 10:30 2.53 11.11 304 8.73 48.9 41.5 1.21 97.0
2024-01-08 10:00 2.13 11.11 309 8.36 48.9 41.7 1.21 82.0
2024-01-08 09:30 1.97 11.11 312 8.29 48.9 41.5 1.30 97.0
2024-01-08 09:00 1.90 13.33 305 7.37 48.7 41.2 1.46 102.0
2024-01-08 08:30 2.36 8.70 305 7.67 48.7 40.6 1.34 101.0
2024-01-08 08:00 3.05 10.53 306 7.80 48.7 41.4 1.81 91.0
2024-01-08 07:30 3.08 8.00 301 7.57 48.6 41.2 1.63 97.0
2024-01-08 07:00 3.18 11.11 302 7.67 48.6 41.2 1.38 102.0
2024-01-08 06:30 3.08 10.53 301 8.17 48.7 41.2 1.48 91.0
2024-01-08 06:00 3.31 10.00 296 8.13 48.7 40.5 0.97 94.0
2024-01-08 05:30 3.44 11.11 294 7.88 48.7 41.0 0.99 108.0
2024-01-08 05:00 3.84 8.33 281 8.49 48.7 41.2 1.05 91.0
2024-01-08 04:30 3.25 10.00 288 8.75 48.9 40.8 0.91 82.0
2024-01-08 04:00 2.99 8.70 290 8.61 48.9 40.8 0.68 82.0
2024-01-08 03:30 2.76 9.09 296 8.44 48.9 41.0 0.43 100.0
2024-01-08 03:00 2.56 9.09 288 8.72 48.9 41.2 0.43 67.0
2024-01-08 02:30 2.49 9.52 288 8.78 48.9 41.4 0.16 92.0
2024-01-08 02:00 2.20 10.53 311 8.58 48.9 41.4 0.02 168.0
2024-01-08 01:30 1.90 11.76 300 8.01 49.1 41.5 0.19 257.0
2024-01-08 01:00 1.90 11.11 297 7.93 49.1 41.5 0.51 247.0
2024-01-08 00:30 2.03 12.50 302 8.21 49.1 42.1 1.15 256.0
2024-01-08 00:00 2.49 11.76 306 8.27 49.1 42.3 1.11 278.0
2024-01-07 23:30 2.49 14.29 303 7.42 48.9 42.3 1.24 271.0
2024-01-07 23:00 2.56 11.11 310 6.46 49.1 42.1 0.89 277.0
2024-01-07 22:30 2.66 10.53 302 6.30 49.1 42.3 0.97 279.0
2024-01-07 22:00 2.72 11.76 307 6.44 48.9 41.9 0.95 283.0
2024-01-07 21:30 2.59 13.33 307 6.37 48.9 41.7 0.86 296.0
2024-01-07 21:00 2.53 11.11 301 6.20 48.4 41.7 0.74 308.0
2024-01-07 20:30 2.66 10.53 303 6.76 48.4 41.9 0.80 330.0
2024-01-07 20:00 2.66 10.53 301 6.45 48.6 42.6 0.47 346.0
2024-01-07 19:30 3.12 10.00 302 6.75 48.4 42.6 0.49 352.0
2024-01-07 19:00 3.02 10.53 298 7.18 48.4 41.7 0.51 351.0
2024-01-07 18:30 3.08 11.11 303 7.51 48.2 41.4 0.51 355.0
2024-01-07 18:00 3.22 11.11 304 7.64 48.4 40.8 0.58 7.0
2024-01-07 17:30 3.25 10.53 303 6.85 48.6 40.8 0.58 15.0
2024-01-07 17:00 3.54 9.52 308 6.61 48.9 40.6 0.35 52.0
2024-01-07 16:30 3.18 11.11 305 6.76 48.9 40.6 0.39 73.0
2024-01-07 16:00 3.15 10.53 306 6.74 48.9 40.8 0.45 98.0
2024-01-07 15:30 2.89 11.76 302 6.59 49.1 40.5 0.51 110.0
2024-01-07 15:00 2.69 11.11 303 6.23 49.1 40.8 0.43 109.0
2024-01-07 14:30 2.43 11.76 305 5.77 49.1 40.8 0.41 103.0
2024-01-07 14:00 2.62 11.76 299 5.73 49.1 41.4 0.51 110.0
2024-01-07 13:30 2.46 9.09 299 5.60 49.1 41.0 0.51 113.0
2024-01-07 13:00 3.05 11.11 298 6.74 49.1 41.4 0.68 96.0
2024-01-07 12:30 2.99 11.11 299 6.94 49.1 40.6 0.80 95.0
2024-01-07 12:00 2.99 12.50 300 7.19 49.1 41.2 0.93 92.0
2024-01-07 11:30 3.22 10.53 294 7.45 49.1 41.5 1.07 95.0
2024-01-07 11:00 3.97 10.53 299 8.17 49.1 41.7 1.24 92.0
2024-01-07 10:30 4.20 11.76 299 8.73 49.1 42.3 1.48 94.0
2024-01-07 10:00 4.43 11.11 300 8.83 49.1 41.9 1.52 99.0
2024-01-07 09:30 4.59 11.11 300 8.95 49.1 42.4 1.63 98.0
2024-01-07 09:00 3.97 10.00 302 8.75 49.1 42.4 1.81 96.0
2024-01-07 08:30 3.87 11.11 300 8.35 49.1 41.7 1.89 94.0
2024-01-07 08:00 4.07 10.00 304 7.95 49.1 42.1 2.10 98.0
2024-01-07 07:30 4.20 9.09 305 7.36 48.9 42.1 1.94 106.0
2024-01-07 07:00 4.99 9.09 302 7.31 48.7 41.9 2.04 92.0
2024-01-07 06:30 5.45 9.09 295 7.50 48.9 41.7 1.48 98.0
2024-01-07 06:00 5.94 9.52 300 7.72 48.7 42.4 1.65 95.0
2024-01-07 05:30 5.18 9.09 298 7.51 48.9 42.3 1.71 91.0
2024-01-07 05:00 4.59 10.00 304 7.43 48.9 42.8 1.89 95.0
2024-01-07 04:30 3.41 9.09 287 7.07 48.9 42.6 1.38 103.0
2024-01-07 04:00 3.25 9.09 305 7.03 48.9 44.1 1.57 100.0
2024-01-07 03:30 2.69 10.53 311 6.37 48.7 43.9 1.32 100.0
2024-01-07 03:00 2.36 10.53 315 5.55 48.9 43.5 0.62 131.0
2024-01-07 02:30 2.40 8.70 322 5.12 48.9 45.0 0.74 137.0
2024-01-07 02:00 2.85 10.53 298 5.23 49.1 45.1 0.58 136.0
2024-01-07 01:30 3.25 10.53 296 5.74 49.1 45.1 0.49 150.0
2024-01-07 01:00 3.22 11.11 297 5.40 49.1 45.3 0.21 160.0
2024-01-07 00:30 3.67 11.76 294 5.99 49.1 45.1 0.39 204.0
2024-01-07 00:00 3.35 10.53 296 5.65 49.1 45.3 0.19 219.0
2024-01-06 23:30 3.61 11.76 297 6.16 49.1 0.12 219.0
2024-01-06 23:00 3.61 13.33 299 5.97 49.1 0.04 41.0
2024-01-06 22:30 3.90 11.76 296 6.11 49.1 0.12 333.0
2024-01-06 22:00 4.13 12.50 296 6.31 49.1 43.5 0.14 350.0
2024-01-06 21:30 4.40 12.50 297 6.27 49.3 47.1 0.21 287.0
2024-01-06 21:00 4.43 11.76 294 6.04 49.3 46.8 0.37 214.0
2024-01-06 20:30 4.13 11.76 293 5.95 49.3 47.5 0.37 180.0
2024-01-06 20:00 4.17 10.53 295 6.19 49.3 46.6 0.35 152.0
2024-01-06 19:30 4.82 11.76 296 6.51 49.3 46.2 0.47 128.0
2024-01-06 19:00 4.63 11.76 299 6.45 49.1 45.7 0.58 113.0
2024-01-06 18:30 4.69 13.33 300 6.52 49.3 45.5 0.76 109.0
2024-01-06 18:00 5.02 14.29 305 6.45 49.1 45.3 0.89 100.0
2024-01-06 17:30 5.38 11.76 301 6.63 49.1 45.7 1.07 104.0
2024-01-06 17:00 5.77 12.50 301 7.18 49.1 45.1 1.07 102.0
2024-01-06 16:30 6.20 11.76 301 7.40 49.1 45.0 1.13 105.0
2024-01-06 16:00 6.10 12.50 306 6.79 49.1 44.8 1.05 92.0
2024-01-06 15:30 5.38 12.50 307 6.04 49.1 44.8 1.07 103.0
2024-01-06 15:00 5.41 10.53 300 6.65 49.1 44.6 1.05 104.0
2024-01-06 14:30 5.41 12.50 306 6.86 49.1 44.8 0.95 107.0
2024-01-06 14:00 5.02 11.11 301 6.47 49.1 44.4 0.89 103.0
2024-01-06 13:30 4.20 14.29 317 5.26 49.3 44.4 1.07 107.0
2024-01-06 13:00 4.17 13.33 311 5.93 49.3 44.8 1.13 111.0
2024-01-06 12:30 4.00 13.33 308 6.45 49.3 44.6 0.99 100.0
2024-01-06 12:00 3.64 13.33 308 6.02 49.3 42.8 1.24 99.0
2024-01-06 11:30 3.12 12.50 304 5.67 49.3 1.19 102.0
2024-01-06 11:00 2.92 11.76 301 5.45 49.5 1.38 103.0
2024-01-06 10:30 2.59 13.33 315 5.10 49.5 1.54 107.0
2024-01-06 10:00 2.85 14.29 305 5.43 49.5 1.83 110.0
2024-01-06 09:30 2.56 11.11 305 5.00 49.3 2.00 106.0
2024-01-06 09:00 2.85 11.11 292 4.00 49.3 42.3 2.10 106.0
2024-01-06 08:30 2.66 11.11 280 3.68 49.1 2.08 103.0
2024-01-06 08:00 1.84 10.53 330 5.18 49.1 46.0 2.10 104.0
2024-01-06 07:30 2.07 12.50 294 8.19 49.1 2.02 103.0
2024-01-06 07:00 2.30 13.33 301 8.65 48.9 2.06 103.0
2024-01-06 06:30 2.72 9.52 294 8.06 48.9 1.19 95.0
2024-01-06 06:00 3.64 9.09 293 7.44 48.9 1.32 79.0
2024-01-06 05:30 3.94 11.11 300 7.16 48.7 43.9 1.42 82.0
2024-01-06 05:00 3.48 9.52 295 6.81 48.7 1.13 101.0
2024-01-06 04:30 2.99 9.09 298 6.61 48.7 45.3 1.22 107.0
2024-01-06 04:00 3.02 9.52 298 6.27 48.9 44.4 1.22 112.0
2024-01-06 03:30 3.18 9.52 296 6.50 48.9 45.9 0.91 114.0
2024-01-06 03:00 3.15 10.00 300 5.86 48.9 45.9 0.95 113.0
2024-01-06 02:30 2.69 10.00 294 5.19 48.9 47.8 0.60 124.0
2024-01-06 02:00 2.20 10.53 295 5.06 48.9 48.7 0.41 147.0
2024-01-06 01:30 2.17 13.33 299 5.18 48.9 48.2 0.29 190.0
2024-01-06 01:00 2.95 11.11 295 6.22 48.9 49.1 0.17 197.0
2024-01-06 00:30 3.67 11.11 294 6.88 48.7 48.7 0.51 234.0
2024-01-06 00:00 3.84 13.33 297 7.46 48.7 49.3 0.33 281.0
2024-01-05 23:30 3.61 13.33 299 6.83 48.9 50.9 0.66 288.0
2024-01-05 23:00 3.44 13.33 296 6.86 48.9 51.1 0.60 281.0
2024-01-05 22:30 3.38 13.33 297 6.39 48.9 51.3 0.39 289.0
2024-01-05 22:00 3.67 13.33 301 7.47 48.9 50.4 0.47 307.0
2024-01-05 21:30 3.58 14.29 303 7.24 48.9 46.6 0.41 289.0
2024-01-05 21:00 4.17 14.29 305 7.94 48.9 46.6 0.14 3.0
2024-01-05 20:30 3.77 14.29 305 7.15 48.9 45.9 0.14 16.0
2024-01-05 20:00 3.54 14.29 303 8.22 48.9 45.9 0.25 119.0
2024-01-05 19:30 3.48 15.38 302 9.05 48.9 45.7 0.45 106.0
2024-01-05 19:00 2.99 15.38 305 8.84 48.9 46.2 0.72 98.0
2024-01-05 18:30 2.92 10.53 295 8.97 48.9 45.9 0.95 92.0
2024-01-05 18:00 2.89 11.76 299 9.05 48.9 46.8 1.13 100.0
2024-01-05 17:30 2.92 11.76 298 9.56 48.9 46.8 1.13 94.0
2024-01-05 17:00 2.66 11.76 297 8.57 48.9 47.1 1.19 91.0
2024-01-05 16:30 2.62 12.50 305 8.87 48.9 46.2 1.19 92.0
2024-01-05 16:00 2.43 10.53 303 8.09 48.9 46.6 1.34 91.0
2024-01-05 15:30 2.10 11.76 309 6.85 48.7 44.8 1.28 101.0
2024-01-05 15:00 2.49 10.53 305 6.83 48.7 45.3 1.19 102.0
2024-01-05 14:30 2.56 11.11 298 5.98 48.9 46.6 1.19 100.0
2024-01-05 14:00 2.00 10.53 295 4.55 48.9 47.5 1.05 107.0
2024-01-05 13:30 2.17 9.09 292 4.40 48.9 46.8 1.01 100.0
2024-01-05 13:00 2.00 10.53 286 4.18 48.9 48.2 0.95 111.0
2024-01-05 12:30 1.84 18.18 316 4.44 48.9 46.2 0.86 110.0
2024-01-05 12:00 1.54 10.53 294 5.26 48.9 43.9 0.86 115.0
2024-01-05 11:30 1.64 10.53 290 5.24 48.9 44.6 0.93 116.0
2024-01-05 11:00 1.74 18.18 316 4.79 48.9 0.95 111.0
2024-01-05 10:30 2.00 9.09 289 4.21 48.7 1.05 111.0
2024-01-05 10:00 2.30 8.00 292 3.91 48.7 1.01 115.0
2024-01-05 09:30 2.33 9.09 292 3.48 48.6 44.4 1.15 111.0
2024-01-05 09:00 1.94 9.09 291 3.49 48.7 44.6 0.78 115.0
2024-01-05 08:30 1.54 9.09 285 6.25 48.7 46.0 0.64 72.0
2024-01-05 08:00 1.77 8.33 281 5.34 48.7 46.6 1.05 72.0
2024-01-05 07:30 2.00 8.33 283 5.35 48.6 46.8 0.84 96.0
2024-01-05 07:00 1.97 8.70 280 5.31 48.7 48.9 0.87 93.0
2024-01-05 06:30 1.90 9.52 284 4.57 48.7 47.8 1.05 89.0
2024-01-05 06:00 1.77 8.00 283 4.66 48.6 49.5 1.01 71.0
2024-01-05 05:30 1.87 8.00 289 4.34 48.6 47.3 1.03 62.0
2024-01-05 05:00 2.17 8.33 289 4.67 48.7 47.5 0.86 59.0
2024-01-05 04:30 2.40 7.14 287 4.70 48.7 47.1 0.89 65.0
2024-01-05 04:00 2.46 7.41 285 4.76 48.7 46.2 0.91 73.0
2024-01-05 03:30 2.62 6.90 293 5.27 48.7 47.1 0.84 76.0
2024-01-05 03:00 2.59 4.55 306 5.07 48.7 48.7 0.70 93.0
2024-01-05 02:30 2.49 4.76 311 5.06 48.7 48.4 0.54 88.0
2024-01-05 02:00 2.40 4.88 298 4.97 48.7 48.9 0.23 94.0
2024-01-05 01:30 2.13 4.76 305 4.37 48.7 48.6 0.64 157.0
2024-01-05 01:00 1.90 5.00 313 4.02 48.7 49.1 0.47 113.0
2024-01-05 00:30 2.07 4.55 310 4.03 48.7 49.3 0.21 145.0
2024-01-05 00:00 2.76 7.69 289 5.01 48.7 49.6 0.37 169.0
2024-01-04 23:30 3.22 11.11 297 5.46 48.9 50.0 0.17 194.0
2024-01-04 23:00 3.35 10.00 295 5.59 48.9 50.2 0.16 271.0
2024-01-04 22:30 3.15 10.00 292 5.26 48.9 49.3 0.37 282.0
2024-01-04 22:00 2.76 4.44 312 4.48 48.9 49.8 0.54 276.0
2024-01-04 21:30 2.53 11.11 293 4.44 48.9 49.6 0.82 271.0
2024-01-04 21:00 2.33 13.33 295 4.09 48.9 49.6 0.70 265.0
2024-01-04 20:30 2.36 3.85 284 3.93 49.1 49.8 0.49 251.0
2024-01-04 20:00 2.89 11.76 291 4.37 49.1 50.0 0.23 231.0
2024-01-04 19:30 2.85 12.50 298 4.29 49.1 50.4 0.33 168.0
2024-01-04 19:00 2.62 12.50 302 4.47 49.1 49.8 0.35 136.0
2024-01-04 18:30 2.43 12.50 302 5.57 49.1 47.5 0.49 111.0
2024-01-04 18:00 2.10 11.76 302 6.56 49.1 46.9 0.89 117.0
2024-01-04 17:30 1.64 12.50 299 6.56 49.1 46.9 1.05 115.0
2024-01-04 17:00 1.71 12.50 300 6.96 49.1 46.6 1.13 109.0
2024-01-04 16:30 1.51 12.50 299 6.87 49.1 46.2 1.40 112.0
2024-01-04 16:00 1.41 12.50 302 6.91 48.9 45.9 1.46 112.0
2024-01-04 15:30 1.31 11.76 303 6.72 48.9 46.0 1.61 111.0
2024-01-04 15:00 1.25 12.50 294 6.20 48.7 46.8 1.22 105.0
2024-01-04 14:30 1.05 13.33 330 6.74 48.6 47.1 1.30 94.0
2024-01-04 14:00 1.41 13.33 310 8.10 48.7 46.8 1.07 96.0
2024-01-04 13:30 2.03 13.33 298 8.85 48.7 46.6 0.82 103.0
2024-01-04 13:00 2.30 14.29 302 8.94 48.6 45.9 0.68 88.0
2024-01-04 12:30 2.26 13.33 301 8.98 47.7 46.2 0.70 76.0
2024-01-04 12:00 2.72 13.33 300 9.43 48.0 46.4 0.43 56.0
2024-01-04 11:30 2.85 13.33 298 9.57 48.0 45.9 0.47 44.0
2024-01-04 11:00 2.92 13.33 299 9.29 47.7 46.2 0.51 349.0
2024-01-04 10:30 2.99 13.33 297 9.85 47.5 45.7 0.27 354.0
2024-01-04 10:00 2.36 13.33 298 9.40 47.3 45.5 0.14 15.0
2024-01-04 09:30 2.23 14.29 297 9.25 47.8 45.7 0.47 305.0
2024-01-04 09:00 2.53 9.52 291 9.71 48.2 45.9 0.47 290.0
2024-01-04 08:30 3.02 8.70 291 9.50 48.7 46.4 0.51 225.0
2024-01-04 08:00 3.22 11.11 294 9.66 48.7 46.6 0.31 278.0
2024-01-04 07:30 3.71 10.53 297 9.55 48.9 46.4 0.14 275.0
2024-01-04 07:00 3.22 11.11 296 9.22 48.9 46.0 0.06 116.0
2024-01-04 06:30 3.25 10.53 295 9.41 48.9 46.4 0.16 154.0
2024-01-04 06:00 2.72 9.52 294 9.27 48.9 45.5 0.31 63.0
2024-01-04 05:30 2.56 10.00 295 8.78 48.9 45.9 0.27 73.0
2024-01-04 05:00 3.28 10.53 296 9.09 48.9 45.5 0.35 39.0
2024-01-04 04:30 3.25 11.11 300 8.84 48.9 45.7 0.60 10.0
2024-01-04 04:00 2.99 11.11 301 9.08 48.9 45.7 0.56 357.0
2024-01-04 03:30 3.38 12.50 304 9.47 48.9 45.9 0.25 310.0
2024-01-04 03:00 3.31 10.53 301 9.37 48.9 46.0 0.43 251.0
2024-01-04 02:30 3.61 10.53 299 9.75 49.1 45.9 0.37 233.0
2024-01-04 02:00 3.25 12.50 300 9.88 48.9 46.8 0.51 229.0
2024-01-04 01:30 2.30 10.53 293 9.33 48.9 46.9 0.60 224.0
2024-01-04 01:00 2.23 12.50 294 9.40 48.9 46.9 0.54 214.0
2024-01-04 00:30 2.40 13.33 297 9.38 48.9 47.3 0.51 229.0
2024-01-04 00:00 2.26 13.33 296 9.23 48.9 47.1 0.84 236.0
2024-01-03 23:30 3.18 13.33 302 10.83 48.9 46.8 1.09 251.0
2024-01-03 23:00 2.62 11.11 297 10.16 49.1 46.9 1.07 255.0
2024-01-03 22:30 2.17 11.76 303 10.29 49.3 47.1 1.28 251.0
2024-01-03 22:00 2.36 12.50 304 9.41 49.5 47.8 1.19 261.0
2024-01-03 21:30 2.43 13.33 309 8.82 49.5 47.7 1.38 274.0
2024-01-03 21:00 2.20 13.33 305 7.38 49.5 47.5 1.59 274.0
2024-01-03 20:30 1.74 12.50 299 5.43 49.5 47.3 1.40 283.0
2024-01-03 20:00 2.03 13.33 305 6.92 49.3 47.3 0.91 287.0
2024-01-03 19:30 1.80 14.29 314 6.31 49.1 47.3 0.93 289.0
2024-01-03 19:00 1.80 14.29 310 5.56 49.5 47.3 0.74 256.0
2024-01-03 18:30 1.54 12.50 300 4.19 49.5 47.3 0.12 182.0
2024-01-03 18:00 1.90 13.33 307 4.36 49.5 47.3 0.27 142.0
2024-01-03 17:30 1.71 13.33 309 3.95 49.5 47.3 0.43 138.0
2024-01-03 17:00 1.80 14.29 309 5.27 49.5 47.5 0.72 128.0
2024-01-03 16:30 1.64 14.29 301 5.46 49.5 47.5 0.72 109.0
2024-01-03 16:00 1.48 13.33 301 5.67 49.5 47.3 0.91 112.0
2024-01-03 15:30 1.38 14.29 299 6.45 49.5 47.1 1.17 113.0
2024-01-03 15:00 1.28 13.33 301 7.42 49.3 47.1 1.40 102.0
2024-01-03 14:30 1.18 14.29 308 7.29 49.1 47.1 1.40 100.0
2024-01-03 14:00 1.18 13.33 308 5.97 49.1 47.3 0.86 109.0
2024-01-03 13:30 1.25 13.33 315 5.53 48.9 47.1 0.54 100.0
2024-01-03 13:00 1.21 14.29 303 4.17 49.1 47.1 0.51 98.0
2024-01-03 12:30 1.41 13.33 304 4.03 49.1 47.3 0.45 98.0
2024-01-03 12:00 1.57 14.29 339 3.76 49.3 47.3 0.31 2.0
2024-01-03 11:30 1.64 14.29 343 3.62 49.3 47.5 0.10 359.0
2024-01-03 11:00 1.71 10.53 306 3.67 49.3 47.7 0.17 282.0
2024-01-03 10:30 1.87 13.33 306 3.48 49.3 47.3 0.17 298.0
2024-01-03 10:00 1.84 11.11 304 3.27 49.1 47.3 0.39 284.0
2024-01-03 09:30 2.03 11.11 303 3.34 49.1 46.9 0.60 264.0
2024-01-03 09:00 2.20 3.57 53 3.20 48.9 47.1 0.43 274.0
2024-01-03 08:30 2.10 13.33 303 3.22 48.7 46.9 0.35 279.0
2024-01-03 08:00 2.26 3.70 51 3.16 48.9 47.1 0.78 263.0
2024-01-03 07:30 2.33 4.00 56 3.15 49.1 46.9 0.84 251.0
2024-01-03 07:00 2.17 4.26 63 3.29 49.1 47.3 0.84 251.0
2024-01-03 06:30 1.87 4.17 66 3.53 49.5 46.6 0.72 229.0
2024-01-03 06:00 1.94 4.55 52 3.62 49.6 47.5 0.64 209.0
2024-01-03 05:30 1.94 4.44 66 3.54 49.6 48.0 0.17 183.0
2024-01-03 05:00 2.03 4.44 57 3.39 49.6 48.2 0.23 166.0
2024-01-03 04:30 2.23 5.00 54 3.55 49.6 48.2 0.35 138.0
2024-01-03 04:00 2.00 4.76 53 3.55 49.5 47.8 0.47 117.0
2024-01-03 03:30 1.87 4.35 54 3.63 49.6 46.8 0.47 107.0
2024-01-03 03:00 1.54 4.88 47 3.56 49.5 46.8 0.80 115.0
2024-01-03 02:30 1.38 4.44 49 3.73 49.6 47.7 0.80 121.0
2024-01-03 02:00 1.41 4.55 55 3.66 49.5 46.9 0.39 120.0
2024-01-03 01:30 1.57 4.44 52 3.54 49.3 46.8 0.17 139.0
2024-01-03 01:00 1.57 4.55 47 3.54 49.5 46.6 0.37 180.0
2024-01-03 00:30 1.44 4.76 45 3.44 49.5 46.9 0.43 223.0
2024-01-03 00:00 1.61 3.92 46 3.50 49.6 47.1 0.54 223.0
2024-01-02 23:30 1.57 4.44 66 3.53 49.6 46.6 0.89 225.0
2024-01-02 23:00 1.61 4.65 38 3.62 49.8 46.2 0.97 235.0
2024-01-02 22:30 1.64 4.76 38 3.61 49.8 46.2 1.05 246.0
2024-01-02 22:00 1.97 4.35 49 3.57 49.8 45.3 0.74 247.0
2024-01-02 21:30 2.07 4.17 58 3.49 49.8 45.7 0.84 271.0
2024-01-02 21:00 2.10 3.92 64 3.55 49.8 45.5 1.21 278.0
2024-01-02 20:30 1.80 3.92 56 3.29 49.8 45.1 1.65 282.0
2024-01-02 20:00 2.17 4.17 23 3.41 50.0 45.7 0.97 251.0
2024-01-02 19:30 1.84 3.70 59 3.08 50.0 45.5 0.84 241.0
2024-01-02 19:00 1.87 3.70 74 2.97 50.0 45.1 0.70 228.0
2024-01-02 18:30 1.74 3.64 65 2.93 49.8 45.3 0.31 189.0
2024-01-02 18:00 1.77 3.64 76 2.97 49.8 45.7 0.33 143.0
2024-01-02 17:30 1.80 3.77 82 3.12 49.6 46.0 1.01 119.0
2024-01-02 17:00 2.07 4.08 89 3.44 49.8 45.7 1.42 113.0
2024-01-02 16:30 2.07 4.26 96 3.72 49.6 45.7 1.57 104.0
2024-01-02 16:00 1.74 4.35 83 3.75 49.6 45.5 1.32 101.0
2024-01-02 15:30 1.31 4.00 66 3.71 49.8 45.3 1.59 102.0
2024-01-02 15:00 1.12 3.57 58 3.63 49.8 44.6 1.57 105.0
2024-01-02 14:30 0.92 3.51 50 3.77 50.0 44.2 1.67 111.0
2024-01-02 14:00 0.92 10.53 300 4.10 49.8 44.8 1.67 103.0
2024-01-02 13:30 0.95 14.29 309 3.77 49.8 45.0 1.48 99.0
2024-01-02 13:00 1.08 3.39 50 3.66 49.5 44.4 1.21 100.0
2024-01-02 12:30 1.12 10.00 299 3.73 49.5 43.9 0.93 102.0
2024-01-02 12:00 1.18 3.17 50 3.46 49.1 44.6 0.84 92.0
2024-01-02 11:30 1.02 9.52 295 3.22 49.1 44.4 0.72 99.0
2024-01-02 11:00 1.08 10.53 299 3.22 48.2 44.4 0.56 100.0
2024-01-02 10:30 1.21 11.76 293 3.87 48.2 44.8 0.39 76.0
2024-01-02 10:00 1.21 11.11 294 3.37 48.7 45.5 0.37 98.0
2024-01-02 09:30 1.31 11.11 296 3.17 48.6 45.3 0.31 70.0
2024-01-02 09:00 1.44 11.76 295 3.19 48.7 45.1 0.10 41.0
2024-01-02 08:30 1.12 10.53 288 3.24 48.6 44.2 0.10 0.0
2024-01-02 08:00 1.12 11.76 294 3.43 48.7 43.9 0.33 323.0
2024-01-02 07:30 0.98 11.76 292 3.91 48.9 43.9 0.37 317.0
2024-01-02 07:00 0.85 11.76 295 3.91 49.1 43.5 0.47 264.0
2024-01-02 06:30 1.05 12.50 298 3.53 49.3 43.7 0.84 256.0
2024-01-02 06:00 1.05 10.53 294 2.90 49.1 43.3 0.66 255.0
2024-01-02 05:30 1.12 12.50 297 3.32 48.6 43.2 0.56 263.0
2024-01-02 05:00 1.25 11.76 296 4.00 47.7 43.5 0.27 273.0
2024-01-02 04:30 1.25 12.50 298 5.36 46.8 42.8 0.23 288.0
2024-01-02 04:00 1.12 12.50 301 5.11 47.8 44.2 0.37 313.0
2024-01-02 03:30 1.12 11.76 305 4.92 50.0 44.2 0.27 348.0
2024-01-02 03:00 0.95 12.50 308 4.56 50.0 44.2 0.23 57.0
2024-01-02 02:30 0.98 12.50 303 5.71 50.0 44.4 0.31 103.0
2024-01-02 02:00 1.05 13.33 299 7.05 50.0 44.1 0.33 105.0
2024-01-02 01:30 0.98 13.33 303 7.41 50.0 44.2 0.17 116.0
2024-01-02 01:00 0.85 12.50 302 7.83 50.0 44.1 0.12 122.0
2024-01-02 00:30 0.89 15.38 305 7.87 50.0 44.1 0.12 217.0
2024-01-02 00:00 0.95 14.29 306 7.58 50.0 44.2 0.29 228.0
2024-01-01 23:30 0.89 11.11 297 6.18 50.2 44.2 0.33 238.0
2024-01-01 23:00 1.05 15.38 307 6.18 50.2 44.2 0.49 242.0
2024-01-01 22:30 1.08 12.50 295 5.20 50.2 44.6 0.66 246.0
2024-01-01 22:00 1.18 12.50 300 4.75 50.2 44.8 0.86 252.0
2024-01-01 21:30 1.08 12.50 300 3.68 50.2 45.0 0.72 258.0
2024-01-01 21:00 1.18 13.33 297 3.53 50.2 44.6 0.91 267.0
2024-01-01 20:30 0.98 13.33 307 3.30 50.2 44.8 0.95 260.0
2024-01-01 20:00 0.92 12.50 299 3.61 50.2 44.6 1.07 258.0
2024-01-01 19:30 0.95 13.33 306 3.57 50.2 44.2 1.09 273.0
2024-01-01 19:00 0.89 12.50 303 4.35 50.2 43.7 1.01 273.0
2024-01-01 18:30 0.75 12.50 301 4.18 50.2 43.5 0.78 267.0
2024-01-01 18:00 0.79 12.50 299 4.07 50.2 41.7 0.33 248.0
2024-01-01 17:30 0.85 13.33 297 4.34 50.2 41.9 0.02 85.0
2024-01-01 17:00 0.89 12.50 306 4.54 50.2 40.8 0.25 102.0
2024-01-01 16:30 1.02 12.50 303 4.37 50.2 41.0 0.62 129.0
2024-01-01 16:00 1.12 12.50 306 4.30 50.2 42.1 0.91 123.0
2024-01-01 15:30 1.12 11.76 298 4.65 50.2 40.5 1.19 118.0
2024-01-01 15:00 1.21 11.76 304 4.73 50.0 42.1 1.87 100.0
2024-01-01 14:30 1.21 12.50 289 5.21 50.0 43.3 1.96 96.0
2024-01-01 14:00 1.02 8.70 298 5.59 50.2 44.1 2.25 102.0
2024-01-01 13:30 0.85 11.76 309 6.39 50.2 44.1 2.37 105.0
2024-01-01 13:00 0.79 11.76 300 6.76 49.8 43.5 2.45 101.0
2024-01-01 12:30 0.72 6.45 305 6.14 50.0 43.7 2.43 105.0
2024-01-01 12:00 0.72 7.14 296 5.92 50.0 43.9 1.94 102.0
2024-01-01 11:30 0.66 7.14 297 5.60 49.8 43.5 1.44 97.0
2024-01-01 11:00 0.62 8.33 293 5.63 49.8 43.2 1.38 101.0
2024-01-01 10:30 0.56 7.69 292 5.42 49.5 43.0 1.30 98.0
2024-01-01 10:00 0.56 7.69 297 5.31 48.2 43.5 1.17 103.0
2024-01-01 09:30 0.49 8.70 305 3.93 48.0 43.5 0.56 116.0
2024-01-01 09:00 0.46 10.00 297 4.06 47.7 43.7 0.41 92.0
2024-01-01 08:30 0.49 9.52 305 3.51 46.9 43.5 0.27 49.0
2024-01-01 08:00 0.59 8.00 294 2.94 49.6 44.1 0.16 286.0
2024-01-01 07:30 0.66 10.53 294 3.60 49.8 44.2 0.41 298.0
2024-01-01 07:00 0.69 9.09 289 4.61 49.8 43.9 0.51 292.0
2024-01-01 06:30 0.69 9.52 289 5.57 49.5 44.1 0.66 291.0
2024-01-01 06:00 0.75 8.70 285 6.00 49.8 44.1 0.93 284.0
2024-01-01 05:30 0.79 9.09 285 6.54 48.2 42.4 0.72 269.0
2024-01-01 05:00 0.75 10.00 283 6.17 49.1 40.6 1.07 265.0
2024-01-01 04:30 0.85 11.11 296 6.54 45.1 40.8 0.52 259.0
2024-01-01 04:00 0.89 10.53 291 6.19 47.5 40.6 0.56 274.0
2024-01-01 03:30 0.98 11.11 296 6.19 45.3 40.8 0.27 283.0
2024-01-01 03:00 0.75 11.76 311 4.52 46.8 41.5 0.37 253.0
2024-01-01 02:30 0.89 11.11 295 5.33 50.2 42.3 0.16 234.0
2024-01-01 02:00 0.82 11.76 304 5.13 50.2 43.9 0.12 164.0
2024-01-01 01:30 0.82 9.52 297 5.50 50.4 45.0 0.23 151.0
2024-01-01 01:00 0.79 11.11 301 5.36 50.2 45.7 0.27 148.0
2024-01-01 00:30 0.75 11.11 304 4.62 50.4 46.2 0.16 221.0
2024-01-01 00:00 0.79 9.52 307 4.16 50.4 46.0 0.25 210.0